DLH405 KJFK-EDDF
Flight info
| Callsign | DLH405 |
|---|---|
| Flight time | 6h 39m |
| Altitude | 37000 |
| Route | BETTE DCT ACK DCT KANNI N257B NICSO/M077F370 DCT 48N050W 50N040W 51N030W 52N020W DCT LIMRI DCT XETBO/N0442F370 DCT ENJEX DCT ADHAV DCT AGCAT DCT AXNEF DCT ZIPWE DCT OZZIL DCT SAWPE Q63 CPT UL9 BIG L607 KONAN UL607 SPI T180 NIVNU T847 IMCOM IMCOM1D |
| Aircraft | A343/H-SDE2E3FGHIJ4J5M1RWXY/LB1D1 |
Departure
| Time | 2026-04-07 09:54 |
|---|---|
| Airport | John F. Kennedy International Airport (KJFK) |
Arrival
| Time | 2026-04-07 16:34 |
|---|---|
| Airport | Frankfurt Main Airport (EDDF) |
| Time | Latitude | Longitude | Altitude | Speed | Heading |
|---|---|---|---|---|---|
| 2026-04-07 08:51 | 40.64216 | -73.79081 | 30 ft | 0 kts | 336° |
| 2026-04-07 09:38 | 40.64209 | -73.79077 | 29 ft | 4 kts | 336° |
| 2026-04-07 09:38 | 40.64185 | -73.79064 | 29 ft | 4 kts | 325° |
| 2026-04-07 09:38 | 40.64174 | -73.79041 | 28 ft | 3 kts | 254° |
| 2026-04-07 09:38 | 40.64175 | -73.79036 | 30 ft | 2 kts | 244° |
| 2026-04-07 09:39 | 40.64155 | -73.79043 | 30 ft | 4 kts | 193° |
| 2026-04-07 09:39 | 40.64133 | -73.79061 | 29 ft | 4 kts | 222° |
| 2026-04-07 09:39 | 40.64114 | -73.79086 | 28 ft | 4 kts | 224° |
| 2026-04-07 09:39 | 40.64094 | -73.79111 | 28 ft | 4 kts | 224° |
| 2026-04-07 09:40 | 40.64075 | -73.79136 | 28 ft | 4 kts | 224° |
| 2026-04-07 09:40 | 40.64055 | -73.79160 | 28 ft | 4 kts | 224° |
| 2026-04-07 09:40 | 40.64036 | -73.79185 | 28 ft | 4 kts | 224° |
| 2026-04-07 09:40 | 40.64029 | -73.79195 | 28 ft | 0 kts | 224° |
| 2026-04-07 09:43 | 40.64028 | -73.79196 | 28 ft | 0 kts | 224° |
| 2026-04-07 09:45 | 40.64020 | -73.79205 | 28 ft | 3 kts | 224° |
| 2026-04-07 09:45 | 40.63998 | -73.79233 | 27 ft | 6 kts | 224° |
| 2026-04-07 09:45 | 40.63953 | -73.79290 | 27 ft | 10 kts | 225° |
| 2026-04-07 09:45 | 40.63909 | -73.79305 | 26 ft | 4 kts | 163° |
| 2026-04-07 09:46 | 40.63873 | -73.79267 | 29 ft | 9 kts | 128° |
| 2026-04-07 09:46 | 40.63834 | -73.79181 | 30 ft | 13 kts | 120° |
| 2026-04-07 09:46 | 40.63786 | -73.79073 | 31 ft | 14 kts | 120° |
| 2026-04-07 09:46 | 40.63738 | -73.78968 | 27 ft | 13 kts | 121° |
| 2026-04-07 09:47 | 40.63692 | -73.78867 | 30 ft | 12 kts | 121° |
| 2026-04-07 09:47 | 40.63648 | -73.78770 | 31 ft | 13 kts | 121° |
| 2026-04-07 09:47 | 40.63598 | -73.78659 | 30 ft | 16 kts | 119° |
| 2026-04-07 09:47 | 40.63537 | -73.78524 | 32 ft | 19 kts | 121° |
| 2026-04-07 09:48 | 40.63459 | -73.78355 | 28 ft | 24 kts | 121° |
| 2026-04-07 09:48 | 40.63376 | -73.78172 | 29 ft | 23 kts | 120° |
| 2026-04-07 09:48 | 40.63328 | -73.77978 | 29 ft | 22 kts | 88° |
| 2026-04-07 09:48 | 40.63386 | -73.77811 | 30 ft | 19 kts | 46° |
| 2026-04-07 09:49 | 40.63500 | -73.77713 | 26 ft | 21 kts | 30° |
| 2026-04-07 09:49 | 40.63627 | -73.77612 | 29 ft | 21 kts | 31° |
| 2026-04-07 09:49 | 40.63756 | -73.77513 | 22 ft | 22 kts | 30° |
| 2026-04-07 09:49 | 40.63884 | -73.77415 | 25 ft | 20 kts | 31° |
| 2026-04-07 09:50 | 40.63997 | -73.77324 | 31 ft | 18 kts | 32° |
| 2026-04-07 09:50 | 40.64102 | -73.77242 | 28 ft | 17 kts | 29° |
| 2026-04-07 09:50 | 40.64210 | -73.77158 | 28 ft | 20 kts | 30° |
| 2026-04-07 09:50 | 40.64333 | -73.77060 | 27 ft | 21 kts | 30° |
| 2026-04-07 09:51 | 40.64470 | -73.76989 | 25 ft | 22 kts | 11° |
| 2026-04-07 09:51 | 40.64609 | -73.76910 | 25 ft | 22 kts | 31° |
| 2026-04-07 09:51 | 40.64738 | -73.76807 | 23 ft | 21 kts | 30° |
| 2026-04-07 09:51 | 40.64860 | -73.76715 | 30 ft | 19 kts | 29° |
| 2026-04-07 09:52 | 40.64975 | -73.76623 | 28 ft | 19 kts | 33° |
| 2026-04-07 09:52 | 40.65082 | -73.76539 | 27 ft | 14 kts | 37° |
| 2026-04-07 09:52 | 40.65086 | -73.76445 | 26 ft | 10 kts | 112° |
| 2026-04-07 09:52 | 40.65047 | -73.76367 | 26 ft | 10 kts | 141° |
| 2026-04-07 09:53 | 40.65003 | -73.76372 | 26 ft | 8 kts | 198° |
| 2026-04-07 09:53 | 40.64991 | -73.76381 | 26 ft | 0 kts | 210° |
| 2026-04-07 09:53 | 40.64932 | -73.76427 | 31 ft | 33 kts | 211° |
| 2026-04-07 09:53 | 40.64569 | -73.76712 | 26 ft | 87 kts | 211° |
| 2026-04-07 09:54 | 40.63915 | -73.77219 | 31 ft | 130 kts | 211° |
| 2026-04-07 09:54 | 40.63031 | -73.77907 | 36 ft | 164 kts | 211° |
| 2026-04-07 09:54 | 40.62062 | -73.78646 | 583 ft | 155 kts | 211° |
| 2026-04-07 09:54 | 40.61133 | -73.79289 | 1223 ft | 148 kts | 212° |
| 2026-04-07 09:55 | 40.60142 | -73.79771 | 1538 ft | 164 kts | 193° |
| 2026-04-07 09:55 | 40.58967 | -73.79361 | 1758 ft | 195 kts | 148° |
| 2026-04-07 09:55 | 40.58184 | -73.77822 | 2093 ft | 213 kts | 113° |
| 2026-04-07 09:55 | 40.57907 | -73.75902 | 2510 ft | 220 kts | 95° |
| 2026-04-07 09:56 | 40.57910 | -73.73852 | 2977 ft | 223 kts | 88° |
| 2026-04-07 09:56 | 40.58008 | -73.71832 | 3417 ft | 228 kts | 87° |
| 2026-04-07 09:56 | 40.58103 | -73.69677 | 3652 ft | 246 kts | 88° |
| 2026-04-07 09:56 | 40.58148 | -73.67328 | 3866 ft | 267 kts | 90° |
| 2026-04-07 09:57 | 40.58133 | -73.64816 | 4265 ft | 280 kts | 92° |
| 2026-04-07 09:57 | 40.58074 | -73.62226 | 4868 ft | 285 kts | 94° |
| 2026-04-07 09:57 | 40.57990 | -73.59594 | 5464 ft | 291 kts | 94° |
| 2026-04-07 09:57 | 40.57894 | -73.56909 | 6059 ft | 297 kts | 95° |
| 2026-04-07 09:58 | 40.57794 | -73.54168 | 6618 ft | 304 kts | 95° |
| 2026-04-07 09:58 | 40.57693 | -73.51369 | 7201 ft | 308 kts | 95° |
| 2026-04-07 09:58 | 40.57594 | -73.48531 | 7793 ft | 312 kts | 95° |
| 2026-04-07 09:58 | 40.57497 | -73.45667 | 8412 ft | 315 kts | 95° |
| 2026-04-07 09:59 | 40.57399 | -73.42772 | 9024 ft | 319 kts | 95° |
| 2026-04-07 09:59 | 40.57300 | -73.39840 | 9630 ft | 322 kts | 95° |
| 2026-04-07 09:59 | 40.57200 | -73.36885 | 10201 ft | 327 kts | 95° |
| 2026-04-07 09:59 | 40.57094 | -73.33839 | 10464 ft | 341 kts | 95° |
| 2026-04-07 10:00 | 40.56981 | -73.30657 | 10681 ft | 356 kts | 95° |
| 2026-04-07 10:00 | 40.56863 | -73.27347 | 10906 ft | 369 kts | 95° |
| 2026-04-07 10:00 | 40.56740 | -73.23910 | 11141 ft | 382 kts | 95° |
| 2026-04-07 10:00 | 40.56615 | -73.20375 | 11483 ft | 391 kts | 95° |
| 2026-04-07 10:01 | 40.56488 | -73.16783 | 11898 ft | 396 kts | 95° |
| 2026-04-07 10:01 | 40.56358 | -73.13139 | 12348 ft | 401 kts | 95° |
| 2026-04-07 10:01 | 40.56226 | -73.09449 | 12790 ft | 406 kts | 95° |
| 2026-04-07 10:01 | 40.56092 | -73.05716 | 13232 ft | 411 kts | 95° |
| 2026-04-07 10:02 | 40.56189 | -73.01926 | 13665 ft | 419 kts | 84° |
| 2026-04-07 10:02 | 40.56772 | -72.98157 | 14094 ft | 424 kts | 75° |
| 2026-04-07 10:02 | 40.57580 | -72.94408 | 14475 ft | 428 kts | 72° |
| 2026-04-07 10:02 | 40.58506 | -72.90657 | 14869 ft | 433 kts | 70° |
| 2026-04-07 10:03 | 40.59490 | -72.86903 | 15248 ft | 437 kts | 69° |
| 2026-04-07 10:03 | 40.60499 | -72.83114 | 15650 ft | 441 kts | 69° |
| 2026-04-07 10:03 | 40.61516 | -72.79275 | 16062 ft | 446 kts | 69° |
| 2026-04-07 10:03 | 40.62529 | -72.75402 | 16478 ft | 450 kts | 69° |
| 2026-04-07 10:04 | 40.63540 | -72.71484 | 16872 ft | 455 kts | 69° |
| 2026-04-07 10:04 | 40.64553 | -72.67524 | 17297 ft | 459 kts | 69° |
| 2026-04-07 10:04 | 40.65571 | -72.63518 | 17723 ft | 464 kts | 69° |
| 2026-04-07 10:04 | 40.66599 | -72.59461 | 18130 ft | 470 kts | 69° |
| 2026-04-07 10:05 | 40.67637 | -72.55358 | 18527 ft | 475 kts | 69° |
| 2026-04-07 10:05 | 40.68683 | -72.51214 | 18930 ft | 479 kts | 69° |
| 2026-04-07 10:05 | 40.69734 | -72.47038 | 19340 ft | 482 kts | 69° |
| 2026-04-07 10:05 | 40.70793 | -72.42831 | 19750 ft | 485 kts | 69° |
| 2026-04-07 10:06 | 40.71858 | -72.38592 | 20150 ft | 489 kts | 69° |
| 2026-04-07 10:06 | 40.72928 | -72.34324 | 20541 ft | 492 kts | 69° |
| 2026-04-07 10:06 | 40.74005 | -72.30024 | 20930 ft | 496 kts | 69° |
| 2026-04-07 10:06 | 40.75074 | -72.25749 | 21313 ft | 499 kts | 69° |
| 2026-04-07 10:07 | 40.76176 | -72.21331 | 21676 ft | 502 kts | 70° |
| 2026-04-07 10:07 | 40.77255 | -72.17001 | 22042 ft | 506 kts | 70° |
| 2026-04-07 10:07 | 40.78355 | -72.12575 | 22425 ft | 509 kts | 70° |
| 2026-04-07 10:07 | 40.79459 | -72.08125 | 22799 ft | 513 kts | 70° |
| 2026-04-07 10:08 | 40.80576 | -72.03620 | 23077 ft | 519 kts | 70° |
| 2026-04-07 10:08 | 40.81713 | -71.99020 | 23454 ft | 521 kts | 70° |
| 2026-04-07 10:08 | 40.82840 | -71.94453 | 23805 ft | 524 kts | 70° |
| 2026-04-07 10:08 | 40.83955 | -71.89923 | 24069 ft | 528 kts | 70° |
| 2026-04-07 10:09 | 40.85105 | -71.85241 | 24370 ft | 530 kts | 70° |
| 2026-04-07 10:09 | 40.86229 | -71.80659 | 24652 ft | 533 kts | 70° |
| 2026-04-07 10:09 | 40.87371 | -71.75993 | 24935 ft | 536 kts | 70° |
| 2026-04-07 10:09 | 40.88520 | -71.71290 | 25219 ft | 539 kts | 71° |
| 2026-04-07 10:10 | 40.89670 | -71.66571 | 25494 ft | 541 kts | 71° |
| 2026-04-07 10:10 | 40.90825 | -71.61823 | 25778 ft | 544 kts | 71° |
| 2026-04-07 10:10 | 40.91986 | -71.57043 | 26066 ft | 548 kts | 71° |
| 2026-04-07 10:10 | 40.93151 | -71.52236 | 26266 ft | 552 kts | 71° |
| 2026-04-07 10:11 | 40.94322 | -71.47393 | 26549 ft | 554 kts | 71° |
| 2026-04-07 10:11 | 40.95498 | -71.42521 | 26830 ft | 556 kts | 71° |
| 2026-04-07 10:11 | 40.96673 | -71.37639 | 27098 ft | 559 kts | 71° |
| 2026-04-07 10:11 | 40.97855 | -71.32722 | 27357 ft | 562 kts | 72° |
| 2026-04-07 10:12 | 40.99037 | -71.27792 | 27617 ft | 564 kts | 72° |
| 2026-04-07 10:12 | 41.00225 | -71.22827 | 27874 ft | 567 kts | 72° |
| 2026-04-07 10:12 | 41.01415 | -71.17841 | 28135 ft | 569 kts | 72° |
| 2026-04-07 10:12 | 41.02609 | -71.12831 | 28385 ft | 572 kts | 72° |
| 2026-04-07 10:13 | 41.03806 | -71.07796 | 28688 ft | 574 kts | 72° |
| 2026-04-07 10:13 | 41.05097 | -71.02775 | 28814 ft | 578 kts | 65° |
| 2026-04-07 10:13 | 41.07029 | -70.98133 | 29057 ft | 573 kts | 49° |
| 2026-04-07 10:13 | 41.09511 | -70.94031 | 29328 ft | 569 kts | 42° |
| 2026-04-07 10:14 | 41.12145 | -70.90098 | 29469 ft | 571 kts | 41° |
| 2026-04-07 10:14 | 41.14807 | -70.86191 | 29431 ft | 571 kts | 41° |
| 2026-04-07 10:14 | 41.19172 | -70.79595 | 29551 ft | 578 kts | 48° |
| 2026-04-07 10:15 | 41.21410 | -70.75133 | 29838 ft | 584 kts | 56° |
| 2026-04-07 10:15 | 41.24138 | -70.68951 | 30168 ft | 587 kts | 57° |
| 2026-04-07 10:15 | 41.26126 | -70.64215 | 30359 ft | 590 kts | 58° |
| 2026-04-07 10:15 | 41.28087 | -70.59390 | 30567 ft | 592 kts | 59° |
| 2026-04-07 10:16 | 41.30022 | -70.54544 | 30761 ft | 595 kts | 60° |
| 2026-04-07 10:16 | 41.31951 | -70.49670 | 30922 ft | 597 kts | 60° |
| 2026-04-07 10:16 | 41.33885 | -70.44775 | 31159 ft | 599 kts | 60° |
| 2026-04-07 10:16 | 41.35202 | -70.41444 | 31184 ft | 603 kts | 60° |
| 2026-04-07 10:17 | 41.37161 | -70.36496 | 31339 ft | 606 kts | 60° |
| 2026-04-07 10:17 | 41.39129 | -70.31528 | 31548 ft | 607 kts | 60° |
| 2026-04-07 10:17 | 41.41069 | -70.26628 | 31768 ft | 607 kts | 60° |
| 2026-04-07 10:17 | 41.43040 | -70.21647 | 32031 ft | 607 kts | 60° |
| 2026-04-07 10:18 | 41.45006 | -70.16670 | 32259 ft | 606 kts | 60° |
| 2026-04-07 10:18 | 41.46966 | -70.11700 | 32545 ft | 606 kts | 60° |
| 2026-04-07 10:18 | 41.48928 | -70.06717 | 32790 ft | 608 kts | 60° |
| 2026-04-07 10:18 | 41.50894 | -70.01715 | 32937 ft | 610 kts | 60° |
| 2026-04-07 10:19 | 41.52860 | -69.96706 | 33181 ft | 610 kts | 60° |
| 2026-04-07 10:19 | 41.56785 | -69.86672 | 33681 ft | 609 kts | 60° |
| 2026-04-07 10:19 | 41.58741 | -69.81659 | 33916 ft | 608 kts | 60° |
| 2026-04-07 10:20 | 41.60691 | -69.76655 | 34173 ft | 607 kts | 60° |
| 2026-04-07 10:20 | 41.62635 | -69.71653 | 34399 ft | 608 kts | 60° |
| 2026-04-07 10:20 | 41.64583 | -69.66636 | 34617 ft | 606 kts | 60° |
| 2026-04-07 10:20 | 41.66519 | -69.61640 | 34903 ft | 604 kts | 60° |
| 2026-04-07 10:21 | 41.68442 | -69.56668 | 35193 ft | 601 kts | 60° |
| 2026-04-07 10:21 | 41.70358 | -69.51706 | 35435 ft | 599 kts | 60° |
| 2026-04-07 10:21 | 41.72267 | -69.46755 | 35623 ft | 599 kts | 60° |
| 2026-04-07 10:21 | 41.74171 | -69.41812 | 35815 ft | 598 kts | 60° |
| 2026-04-07 10:22 | 41.76074 | -69.36859 | 36096 ft | 596 kts | 59° |
| 2026-04-07 10:22 | 41.77960 | -69.31940 | 36368 ft | 593 kts | 59° |
| 2026-04-07 10:22 | 41.79841 | -69.27029 | 36612 ft | 591 kts | 59° |
| 2026-04-07 10:22 | 41.81711 | -69.22137 | 36803 ft | 590 kts | 59° |
| 2026-04-07 10:23 | 41.83577 | -69.17247 | 36970 ft | 589 kts | 59° |
| 2026-04-07 10:23 | 41.87308 | -69.07453 | 37196 ft | 590 kts | 59° |
| 2026-04-07 10:24 | 41.91030 | -68.97641 | 37215 ft | 585 kts | 59° |
| 2026-04-07 10:24 | 41.94700 | -68.87929 | 37221 ft | 582 kts | 59° |
| 2026-04-07 10:25 | 41.98357 | -68.78228 | 37225 ft | 582 kts | 59° |
| 2026-04-07 10:25 | 42.02009 | -68.68509 | 37236 ft | 582 kts | 59° |
| 2026-04-07 10:26 | 42.05642 | -68.58800 | 37225 ft | 580 kts | 59° |
| 2026-04-07 10:26 | 42.09259 | -68.49104 | 37205 ft | 580 kts | 59° |
| 2026-04-07 10:27 | 42.12867 | -68.39399 | 37229 ft | 580 kts | 59° |
| 2026-04-07 10:27 | 42.16468 | -68.29682 | 37227 ft | 579 kts | 59° |
| 2026-04-07 10:28 | 42.20053 | -68.19971 | 37226 ft | 579 kts | 59° |
| 2026-04-07 10:28 | 42.23634 | -68.10241 | 37233 ft | 578 kts | 59° |
| 2026-04-07 10:29 | 42.27172 | -68.00590 | 37254 ft | 577 kts | 59° |
| 2026-04-07 10:29 | 42.30749 | -67.90804 | 37232 ft | 577 kts | 60° |
| 2026-04-07 10:30 | 42.34271 | -67.81134 | 37229 ft | 577 kts | 60° |
| 2026-04-07 10:30 | 42.37809 | -67.71388 | 37229 ft | 577 kts | 60° |
| 2026-04-07 10:31 | 42.41336 | -67.61636 | 37225 ft | 577 kts | 60° |
| 2026-04-07 10:31 | 42.44864 | -67.51847 | 37215 ft | 578 kts | 60° |
| 2026-04-07 10:32 | 42.48376 | -67.42067 | 37230 ft | 577 kts | 60° |
| 2026-04-07 10:32 | 42.51881 | -67.32276 | 37230 ft | 577 kts | 60° |
| 2026-04-07 10:33 | 42.55372 | -67.22490 | 37230 ft | 577 kts | 60° |
| 2026-04-07 10:33 | 42.58858 | -67.12682 | 37226 ft | 577 kts | 60° |
| 2026-04-07 10:34 | 42.62330 | -67.02877 | 37228 ft | 576 kts | 60° |
| 2026-04-07 10:34 | 42.65944 | -66.93177 | 37236 ft | 574 kts | 56° |
| 2026-04-07 10:35 | 42.69972 | -66.83831 | 37227 ft | 573 kts | 54° |
| 2026-04-07 10:35 | 42.74034 | -66.74502 | 37225 ft | 574 kts | 55° |
| 2026-04-07 10:36 | 42.78021 | -66.65097 | 37238 ft | 573 kts | 56° |
| 2026-04-07 10:36 | 42.81961 | -66.55645 | 37229 ft | 574 kts | 56° |
| 2026-04-07 10:37 | 42.85883 | -66.46186 | 37232 ft | 574 kts | 56° |
| 2026-04-07 10:37 | 42.89813 | -66.36686 | 37229 ft | 574 kts | 56° |
| 2026-04-07 10:38 | 42.93731 | -66.27194 | 37226 ft | 575 kts | 57° |
| 2026-04-07 10:38 | 42.97644 | -66.17684 | 37203 ft | 575 kts | 57° |
| 2026-04-07 10:39 | 43.01549 | -66.08162 | 37240 ft | 574 kts | 57° |
| 2026-04-07 10:39 | 43.05422 | -65.98687 | 37219 ft | 575 kts | 57° |
| 2026-04-07 10:40 | 43.09312 | -65.89139 | 37220 ft | 575 kts | 57° |
| 2026-04-07 10:40 | 43.13195 | -65.79577 | 37219 ft | 575 kts | 57° |
| 2026-04-07 10:41 | 43.17066 | -65.70013 | 37214 ft | 574 kts | 57° |
| 2026-04-07 10:41 | 43.20927 | -65.60439 | 37212 ft | 574 kts | 57° |
| 2026-04-07 10:42 | 43.24783 | -65.50849 | 37206 ft | 574 kts | 58° |
| 2026-04-07 10:42 | 43.28629 | -65.41250 | 37213 ft | 573 kts | 58° |
| 2026-04-07 10:43 | 43.32461 | -65.31654 | 37209 ft | 573 kts | 58° |
| 2026-04-07 10:43 | 43.36283 | -65.22050 | 37206 ft | 573 kts | 58° |
| 2026-04-07 10:44 | 43.40102 | -65.12424 | 37215 ft | 573 kts | 58° |
| 2026-04-07 10:44 | 43.43905 | -65.02802 | 37200 ft | 572 kts | 58° |
| 2026-04-07 10:45 | 43.47698 | -64.93174 | 37164 ft | 572 kts | 58° |
| 2026-04-07 10:45 | 43.51489 | -64.83522 | 37241 ft | 573 kts | 59° |
| 2026-04-07 10:46 | 43.55229 | -64.73963 | 37194 ft | 573 kts | 59° |
| 2026-04-07 10:46 | 43.58763 | -64.64902 | 37195 ft | 573 kts | 59° |
| 2026-04-07 10:47 | 43.62459 | -64.55396 | 37192 ft | 573 kts | 59° |
| 2026-04-07 10:47 | 43.66243 | -64.45631 | 37198 ft | 572 kts | 59° |
| 2026-04-07 10:48 | 43.69944 | -64.36046 | 37191 ft | 573 kts | 59° |
| 2026-04-07 10:48 | 43.73685 | -64.26324 | 37192 ft | 573 kts | 59° |
| 2026-04-07 10:49 | 43.77418 | -64.16589 | 37195 ft | 573 kts | 59° |
| 2026-04-07 10:49 | 43.80836 | -64.07647 | 37197 ft | 573 kts | 60° |
| 2026-04-07 10:50 | 43.84514 | -63.97991 | 37200 ft | 573 kts | 60° |
| 2026-04-07 10:50 | 43.88226 | -63.88213 | 37200 ft | 573 kts | 60° |
| 2026-04-07 10:51 | 43.91924 | -63.78437 | 37195 ft | 573 kts | 60° |
| 2026-04-07 10:51 | 43.95613 | -63.68649 | 37193 ft | 570 kts | 60° |
| 2026-04-07 10:52 | 43.99288 | -63.58867 | 37196 ft | 573 kts | 60° |
| 2026-04-07 10:52 | 44.02972 | -63.49029 | 37197 ft | 574 kts | 61° |
| 2026-04-07 10:53 | 44.06648 | -63.39172 | 37187 ft | 574 kts | 61° |
| 2026-04-07 10:53 | 44.10315 | -63.29306 | 37179 ft | 574 kts | 61° |
| 2026-04-07 10:54 | 44.13972 | -63.19432 | 37200 ft | 574 kts | 61° |
| 2026-04-07 10:54 | 44.17622 | -63.09541 | 37170 ft | 574 kts | 61° |
| 2026-04-07 10:55 | 44.21256 | -62.99659 | 37160 ft | 574 kts | 61° |
| 2026-04-07 10:55 | 44.24896 | -62.89725 | 37155 ft | 575 kts | 62° |
| 2026-04-07 10:56 | 44.28524 | -62.79787 | 37148 ft | 575 kts | 62° |
| 2026-04-07 10:56 | 44.32144 | -62.69836 | 37146 ft | 574 kts | 62° |
| 2026-04-07 10:57 | 44.35752 | -62.59881 | 37135 ft | 574 kts | 62° |
| 2026-04-07 10:57 | 44.39350 | -62.49919 | 37137 ft | 574 kts | 62° |
| 2026-04-07 10:58 | 44.42940 | -62.39943 | 37133 ft | 574 kts | 62° |
| 2026-04-07 10:58 | 44.46515 | -62.29971 | 37118 ft | 574 kts | 62° |
| 2026-04-07 10:59 | 44.50086 | -62.19976 | 37113 ft | 574 kts | 62° |
| 2026-04-07 10:59 | 44.53623 | -62.10038 | 37134 ft | 573 kts | 63° |
| 2026-04-07 11:00 | 44.57173 | -62.00027 | 37132 ft | 573 kts | 63° |
| 2026-04-07 11:00 | 44.60740 | -61.89930 | 37173 ft | 574 kts | 63° |
| 2026-04-07 11:01 | 44.64250 | -61.79958 | 37168 ft | 573 kts | 63° |
| 2026-04-07 11:01 | 44.67790 | -61.69863 | 37156 ft | 572 kts | 63° |
| 2026-04-07 11:02 | 44.71273 | -61.59896 | 37141 ft | 572 kts | 63° |
| 2026-04-07 11:02 | 44.74784 | -61.49809 | 37198 ft | 575 kts | 64° |
| 2026-04-07 11:03 | 44.78288 | -61.39705 | 37146 ft | 574 kts | 64° |
| 2026-04-07 11:03 | 44.81776 | -61.29608 | 37143 ft | 574 kts | 64° |
| 2026-04-07 11:04 | 44.85256 | -61.19497 | 37141 ft | 574 kts | 64° |
| 2026-04-07 11:04 | 44.88166 | -61.11013 | 37139 ft | 573 kts | 64° |
| 2026-04-07 11:05 | 44.91627 | -61.00888 | 37135 ft | 573 kts | 64° |
| 2026-04-07 11:05 | 44.95078 | -60.90752 | 37123 ft | 573 kts | 64° |
| 2026-04-07 11:06 | 44.98533 | -60.80565 | 37130 ft | 576 kts | 64° |
| 2026-04-07 11:06 | 45.01986 | -60.70349 | 37117 ft | 576 kts | 65° |
| 2026-04-07 11:07 | 45.05432 | -60.60112 | 37116 ft | 576 kts | 65° |
| 2026-04-07 11:07 | 45.08845 | -60.49935 | 37121 ft | 576 kts | 65° |
| 2026-04-07 11:08 | 45.12271 | -60.39678 | 37114 ft | 576 kts | 65° |
| 2026-04-07 11:08 | 45.15681 | -60.29430 | 37099 ft | 575 kts | 65° |
| 2026-04-07 11:09 | 45.19080 | -60.19173 | 37105 ft | 576 kts | 65° |
| 2026-04-07 11:09 | 45.22491 | -60.08842 | 37106 ft | 580 kts | 65° |
| 2026-04-07 11:10 | 45.25897 | -59.98484 | 37099 ft | 579 kts | 65° |
| 2026-04-07 11:10 | 45.29289 | -59.88132 | 37108 ft | 578 kts | 65° |
| 2026-04-07 11:11 | 45.32667 | -59.77779 | 37105 ft | 578 kts | 65° |
| 2026-04-07 11:11 | 45.36037 | -59.67409 | 37108 ft | 577 kts | 66° |
| 2026-04-07 11:12 | 45.39388 | -59.57055 | 37104 ft | 576 kts | 66° |
| 2026-04-07 11:12 | 45.42705 | -59.46767 | 37097 ft | 577 kts | 66° |
| 2026-04-07 11:13 | 45.46060 | -59.36316 | 37106 ft | 582 kts | 66° |
| 2026-04-07 11:13 | 45.49413 | -59.25834 | 37096 ft | 580 kts | 66° |
| 2026-04-07 11:14 | 45.52746 | -59.15370 | 37097 ft | 579 kts | 66° |
| 2026-04-07 11:14 | 45.56067 | -59.04902 | 37094 ft | 579 kts | 66° |
| 2026-04-07 11:15 | 45.59378 | -58.94423 | 37093 ft | 579 kts | 66° |
| 2026-04-07 11:15 | 45.62677 | -58.83941 | 37083 ft | 578 kts | 67° |
| 2026-04-07 11:16 | 45.65966 | -58.73444 | 37076 ft | 580 kts | 66° |
| 2026-04-07 11:16 | 45.69270 | -58.62856 | 37081 ft | 584 kts | 66° |
| 2026-04-07 11:17 | 45.72569 | -58.52243 | 37078 ft | 584 kts | 67° |
| 2026-04-07 11:17 | 45.75856 | -58.41624 | 37075 ft | 583 kts | 67° |
| 2026-04-07 11:18 | 45.79133 | -58.30993 | 37076 ft | 583 kts | 67° |
| 2026-04-07 11:18 | 45.82395 | -58.20364 | 37078 ft | 583 kts | 67° |
| 2026-04-07 11:19 | 45.85644 | -58.09737 | 37064 ft | 581 kts | 67° |
| 2026-04-07 11:19 | 45.88876 | -57.99116 | 37055 ft | 582 kts | 67° |
| 2026-04-07 11:20 | 45.92116 | -57.88426 | 37059 ft | 585 kts | 67° |
| 2026-04-07 11:20 | 45.95350 | -57.77710 | 37057 ft | 584 kts | 67° |
| 2026-04-07 11:21 | 45.98551 | -57.67059 | 37056 ft | 584 kts | 67° |
| 2026-04-07 11:21 | 46.01761 | -57.56332 | 37054 ft | 584 kts | 67° |
| 2026-04-07 11:22 | 46.04963 | -57.45587 | 37053 ft | 584 kts | 68° |
| 2026-04-07 11:22 | 46.08147 | -57.34853 | 37045 ft | 582 kts | 68° |
| 2026-04-07 11:23 | 46.11316 | -57.24126 | 37044 ft | 583 kts | 68° |
| 2026-04-07 11:23 | 46.14484 | -57.13354 | 37047 ft | 584 kts | 68° |
| 2026-04-07 11:24 | 46.17645 | -57.02562 | 37035 ft | 584 kts | 68° |
| 2026-04-07 11:24 | 46.20793 | -56.91764 | 37017 ft | 584 kts | 68° |
| 2026-04-07 11:25 | 46.25501 | -56.75528 | 37017 ft | 584 kts | 68° |
| 2026-04-07 11:25 | 46.28623 | -56.64700 | 37015 ft | 583 kts | 68° |
| 2026-04-07 11:26 | 46.31735 | -56.53863 | 37007 ft | 583 kts | 68° |
| 2026-04-07 11:26 | 46.34815 | -56.43087 | 37007 ft | 584 kts | 68° |
| 2026-04-07 11:27 | 46.37906 | -56.32227 | 37013 ft | 584 kts | 68° |
| 2026-04-07 11:27 | 46.40987 | -56.21351 | 36993 ft | 583 kts | 68° |
| 2026-04-07 11:28 | 46.44054 | -56.10477 | 36985 ft | 583 kts | 69° |
| 2026-04-07 11:28 | 46.47112 | -55.99586 | 37003 ft | 583 kts | 69° |
| 2026-04-07 11:29 | 46.50160 | -55.88680 | 36997 ft | 583 kts | 69° |
| 2026-04-07 11:29 | 46.53194 | -55.77777 | 36996 ft | 582 kts | 69° |
| 2026-04-07 11:30 | 46.56219 | -55.66856 | 36990 ft | 583 kts | 69° |
| 2026-04-07 11:30 | 46.59238 | -55.55905 | 36993 ft | 584 kts | 69° |
| 2026-04-07 11:31 | 46.62247 | -55.44942 | 36985 ft | 583 kts | 69° |
| 2026-04-07 11:31 | 46.65242 | -55.33982 | 36980 ft | 582 kts | 69° |
| 2026-04-07 11:32 | 46.68222 | -55.23023 | 36979 ft | 582 kts | 70° |
| 2026-04-07 11:32 | 46.71195 | -55.12042 | 36977 ft | 582 kts | 70° |
| 2026-04-07 11:33 | 46.74151 | -55.01071 | 36963 ft | 581 kts | 70° |
| 2026-04-07 11:33 | 46.77094 | -54.90097 | 36974 ft | 581 kts | 70° |
| 2026-04-07 11:34 | 46.80031 | -54.79095 | 36971 ft | 581 kts | 70° |
| 2026-04-07 11:34 | 46.82955 | -54.68091 | 36958 ft | 581 kts | 70° |
| 2026-04-07 11:35 | 46.85865 | -54.57087 | 36948 ft | 581 kts | 70° |
| 2026-04-07 11:35 | 46.88767 | -54.46060 | 36930 ft | 581 kts | 70° |
| 2026-04-07 11:36 | 46.91657 | -54.35027 | 36949 ft | 581 kts | 70° |
| 2026-04-07 11:37 | 46.97164 | -54.13861 | 36849 ft | 579 kts | 71° |
| 2026-04-07 11:37 | 47.00022 | -54.02797 | 36902 ft | 582 kts | 71° |
| 2026-04-07 11:38 | 47.02877 | -53.91693 | 36902 ft | 582 kts | 71° |
| 2026-04-07 11:38 | 47.05698 | -53.80670 | 36882 ft | 581 kts | 71° |
| 2026-04-07 11:39 | 47.08524 | -53.69571 | 36870 ft | 582 kts | 71° |
| 2026-04-07 11:39 | 47.11343 | -53.58442 | 36868 ft | 586 kts | 71° |
| 2026-04-07 11:40 | 47.14175 | -53.47212 | 36855 ft | 586 kts | 71° |
| 2026-04-07 11:40 | 47.16990 | -53.35994 | 36851 ft | 585 kts | 71° |
| 2026-04-07 11:41 | 47.19794 | -53.24764 | 36851 ft | 587 kts | 72° |
| 2026-04-07 11:41 | 47.22401 | -53.14269 | 36836 ft | 588 kts | 72° |
| 2026-04-07 11:42 | 47.25197 | -53.02963 | 36829 ft | 588 kts | 72° |
| 2026-04-07 11:42 | 47.27981 | -52.91650 | 36829 ft | 588 kts | 72° |
| 2026-04-07 11:43 | 47.30753 | -52.80330 | 36823 ft | 585 kts | 72° |
| 2026-04-07 11:43 | 47.33492 | -52.69085 | 36820 ft | 582 kts | 72° |
| 2026-04-07 11:44 | 47.36214 | -52.57851 | 36812 ft | 582 kts | 72° |
| 2026-04-07 11:44 | 47.38906 | -52.46681 | 36833 ft | 583 kts | 73° |
| 2026-04-07 11:45 | 47.41618 | -52.35374 | 36840 ft | 586 kts | 73° |
| 2026-04-07 11:45 | 47.44324 | -52.24036 | 36843 ft | 586 kts | 73° |
| 2026-04-07 11:46 | 47.47024 | -52.12667 | 36867 ft | 586 kts | 73° |
| 2026-04-07 11:46 | 47.49709 | -52.01298 | 36870 ft | 586 kts | 73° |
| 2026-04-07 11:47 | 47.52501 | -51.89970 | 36874 ft | 586 kts | 71° |
| 2026-04-07 11:47 | 47.55475 | -51.78732 | 36872 ft | 585 kts | 70° |
| 2026-04-07 11:48 | 47.58427 | -51.67524 | 36862 ft | 584 kts | 71° |
| 2026-04-07 11:48 | 47.61335 | -51.56267 | 36863 ft | 587 kts | 71° |
| 2026-04-07 11:49 | 47.64236 | -51.44905 | 36876 ft | 590 kts | 71° |
| 2026-04-07 11:49 | 47.67124 | -51.33541 | 36857 ft | 588 kts | 72° |
| 2026-04-07 11:50 | 47.69998 | -51.22179 | 36858 ft | 588 kts | 72° |
| 2026-04-07 11:50 | 47.72863 | -51.10804 | 36854 ft | 588 kts | 72° |
| 2026-04-07 11:51 | 47.75714 | -50.99421 | 36850 ft | 587 kts | 72° |
| 2026-04-07 11:51 | 47.78551 | -50.88042 | 36839 ft | 587 kts | 72° |
| 2026-04-07 11:52 | 47.81375 | -50.76657 | 36838 ft | 587 kts | 72° |
| 2026-04-07 11:52 | 47.84189 | -50.65249 | 36839 ft | 589 kts | 72° |
| 2026-04-07 11:53 | 47.87002 | -50.53786 | 36821 ft | 590 kts | 72° |
| 2026-04-07 11:53 | 47.89807 | -50.42308 | 36836 ft | 589 kts | 72° |
| 2026-04-07 11:54 | 47.92597 | -50.30827 | 36835 ft | 589 kts | 72° |
| 2026-04-07 11:54 | 47.95357 | -50.19407 | 36827 ft | 589 kts | 72° |
| 2026-04-07 11:55 | 47.98117 | -50.07931 | 36822 ft | 587 kts | 72° |
| 2026-04-07 11:55 | 48.00873 | -49.96444 | 36822 ft | 587 kts | 72° |
| 2026-04-07 11:56 | 48.06574 | -49.73818 | 36811 ft | 589 kts | 71° |
| 2026-04-07 11:57 | 48.09457 | -49.62329 | 36812 ft | 590 kts | 72° |
| 2026-04-07 11:57 | 48.12315 | -49.50815 | 36804 ft | 590 kts | 72° |
| 2026-04-07 11:58 | 48.15156 | -49.39287 | 36816 ft | 590 kts | 72° |
| 2026-04-07 11:58 | 48.17986 | -49.27747 | 36803 ft | 590 kts | 72° |
| 2026-04-07 11:59 | 48.20801 | -49.16209 | 36801 ft | 590 kts | 72° |
| 2026-04-07 11:59 | 48.23607 | -49.04655 | 36795 ft | 590 kts | 72° |
| 2026-04-07 12:00 | 48.26401 | -48.93089 | 36797 ft | 590 kts | 72° |
| 2026-04-07 12:00 | 48.29183 | -48.81511 | 36758 ft | 589 kts | 72° |
| 2026-04-07 12:01 | 48.31958 | -48.69897 | 36803 ft | 591 kts | 72° |
| 2026-04-07 12:01 | 48.34726 | -48.58253 | 36803 ft | 591 kts | 72° |
| 2026-04-07 12:02 | 48.37483 | -48.46598 | 36791 ft | 591 kts | 72° |
| 2026-04-07 12:02 | 48.40225 | -48.34940 | 36785 ft | 591 kts | 73° |
| 2026-04-07 12:03 | 48.42956 | -48.23268 | 36796 ft | 591 kts | 73° |
| 2026-04-07 12:03 | 48.45674 | -48.11584 | 36798 ft | 591 kts | 73° |
| 2026-04-07 12:04 | 48.48378 | -47.99902 | 36777 ft | 590 kts | 73° |
| 2026-04-07 12:04 | 48.51068 | -47.88214 | 36777 ft | 590 kts | 73° |
| 2026-04-07 12:05 | 48.53749 | -47.76501 | 36777 ft | 591 kts | 73° |
| 2026-04-07 12:05 | 48.56420 | -47.64768 | 36779 ft | 591 kts | 73° |
| 2026-04-07 12:06 | 48.59079 | -47.53021 | 36768 ft | 591 kts | 73° |
| 2026-04-07 12:06 | 48.61724 | -47.41276 | 36768 ft | 591 kts | 73° |
| 2026-04-07 12:07 | 48.64359 | -47.29508 | 36760 ft | 591 kts | 73° |
| 2026-04-07 12:07 | 48.66980 | -47.17734 | 36760 ft | 590 kts | 73° |
| 2026-04-07 12:08 | 48.69590 | -47.05948 | 36761 ft | 590 kts | 73° |
| 2026-04-07 12:08 | 48.72184 | -46.94161 | 36756 ft | 590 kts | 74° |
| 2026-04-07 12:09 | 48.74752 | -46.82433 | 36723 ft | 590 kts | 74° |
| 2026-04-07 12:09 | 48.77321 | -46.70626 | 36757 ft | 590 kts | 74° |
| 2026-04-07 12:10 | 48.79881 | -46.58801 | 36751 ft | 590 kts | 74° |
| 2026-04-07 12:10 | 48.82425 | -46.46981 | 36749 ft | 590 kts | 74° |
| 2026-04-07 12:11 | 48.84958 | -46.35141 | 36752 ft | 589 kts | 74° |
| 2026-04-07 12:11 | 48.87477 | -46.23293 | 36742 ft | 589 kts | 74° |
| 2026-04-07 12:12 | 48.89981 | -46.11449 | 36737 ft | 589 kts | 74° |
| 2026-04-07 12:12 | 48.92475 | -45.99588 | 36746 ft | 589 kts | 74° |
| 2026-04-07 12:13 | 48.94954 | -45.87723 | 36738 ft | 588 kts | 75° |
| 2026-04-07 12:13 | 48.97417 | -45.75868 | 36730 ft | 588 kts | 75° |
| 2026-04-07 12:14 | 48.99868 | -45.63996 | 36730 ft | 588 kts | 75° |
| 2026-04-07 12:14 | 49.02307 | -45.52117 | 36749 ft | 588 kts | 75° |
| 2026-04-07 12:15 | 49.04730 | -45.40244 | 36727 ft | 586 kts | 75° |
| 2026-04-07 12:15 | 49.07139 | -45.28366 | 36728 ft | 586 kts | 75° |
| 2026-04-07 12:16 | 49.09535 | -45.16482 | 36731 ft | 586 kts | 75° |
| 2026-04-07 12:16 | 49.11921 | -45.04577 | 36731 ft | 586 kts | 75° |
| 2026-04-07 12:17 | 49.14289 | -44.92689 | 36727 ft | 585 kts | 75° |
| 2026-04-07 12:17 | 49.16630 | -44.80868 | 36722 ft | 585 kts | 75° |
| 2026-04-07 12:18 | 49.18972 | -44.68961 | 36726 ft | 586 kts | 75° |
| 2026-04-07 12:18 | 49.21305 | -44.57032 | 36727 ft | 585 kts | 76° |
| 2026-04-07 12:19 | 49.23625 | -44.45095 | 36725 ft | 585 kts | 76° |
| 2026-04-07 12:19 | 49.25931 | -44.33153 | 36733 ft | 585 kts | 76° |
| 2026-04-07 12:20 | 49.28225 | -44.21202 | 36736 ft | 585 kts | 76° |
| 2026-04-07 12:20 | 49.30505 | -44.09247 | 36727 ft | 584 kts | 76° |
| 2026-04-07 12:21 | 49.32770 | -43.97293 | 36719 ft | 584 kts | 76° |
| 2026-04-07 12:21 | 49.35022 | -43.85332 | 36728 ft | 584 kts | 76° |
| 2026-04-07 12:22 | 49.37261 | -43.73364 | 36731 ft | 584 kts | 76° |
| 2026-04-07 12:22 | 49.39486 | -43.61389 | 36715 ft | 583 kts | 76° |
| 2026-04-07 12:23 | 49.41327 | -43.51431 | 36717 ft | 583 kts | 76° |
| 2026-04-07 12:23 | 49.43527 | -43.39451 | 36721 ft | 583 kts | 76° |
| 2026-04-07 12:24 | 49.45714 | -43.27468 | 36716 ft | 583 kts | 76° |
| 2026-04-07 12:24 | 49.47888 | -43.15474 | 36713 ft | 582 kts | 76° |
| 2026-04-07 12:25 | 49.50050 | -43.03471 | 36719 ft | 582 kts | 77° |
| 2026-04-07 12:25 | 49.52199 | -42.91458 | 36714 ft | 582 kts | 77° |
| 2026-04-07 12:26 | 49.54336 | -42.79434 | 36714 ft | 582 kts | 77° |
| 2026-04-07 12:26 | 49.56459 | -42.67412 | 36708 ft | 582 kts | 77° |
| 2026-04-07 12:27 | 49.58568 | -42.55379 | 36703 ft | 581 kts | 76° |
| 2026-04-07 12:27 | 49.60660 | -42.43367 | 36714 ft | 580 kts | 77° |
| 2026-04-07 12:28 | 49.62738 | -42.31355 | 36707 ft | 579 kts | 77° |
| 2026-04-07 12:29 | 49.65826 | -42.13346 | 36709 ft | 579 kts | 77° |
| 2026-04-07 12:29 | 49.67856 | -42.01407 | 36703 ft | 579 kts | 77° |
| 2026-04-07 12:30 | 49.69885 | -41.89388 | 36703 ft | 579 kts | 77° |
| 2026-04-07 12:30 | 49.71901 | -41.77364 | 36705 ft | 578 kts | 77° |
| 2026-04-07 12:31 | 49.73903 | -41.65345 | 36704 ft | 577 kts | 77° |
| 2026-04-07 12:31 | 49.75891 | -41.53316 | 36664 ft | 577 kts | 77° |
| 2026-04-07 12:32 | 49.77860 | -41.41328 | 36702 ft | 573 kts | 77° |
| 2026-04-07 12:32 | 49.79803 | -41.29405 | 36704 ft | 571 kts | 77° |
| 2026-04-07 12:33 | 49.81733 | -41.17477 | 36698 ft | 571 kts | 78° |
| 2026-04-07 12:33 | 49.83651 | -41.05534 | 36692 ft | 571 kts | 78° |
| 2026-04-07 12:34 | 49.85558 | -40.93584 | 36691 ft | 571 kts | 78° |
| 2026-04-07 12:34 | 49.87447 | -40.81655 | 36695 ft | 570 kts | 78° |
| 2026-04-07 12:35 | 49.89323 | -40.69722 | 36692 ft | 570 kts | 78° |
| 2026-04-07 12:35 | 49.91186 | -40.57786 | 36691 ft | 569 kts | 78° |
| 2026-04-07 12:36 | 49.93038 | -40.45839 | 36631 ft | 569 kts | 78° |
| 2026-04-07 12:36 | 49.94872 | -40.33913 | 36693 ft | 567 kts | 78° |
| 2026-04-07 12:37 | 49.96690 | -40.22004 | 36687 ft | 566 kts | 78° |
| 2026-04-07 12:37 | 49.98495 | -40.10090 | 36681 ft | 566 kts | 79° |
| 2026-04-07 12:38 | 50.00286 | -39.98176 | 36688 ft | 566 kts | 79° |
| 2026-04-07 12:38 | 50.02032 | -39.86232 | 36680 ft | 566 kts | 79° |
| 2026-04-07 12:39 | 50.03739 | -39.74280 | 36682 ft | 566 kts | 79° |
| 2026-04-07 12:39 | 50.05425 | -39.62406 | 36681 ft | 566 kts | 79° |
| 2026-04-07 12:40 | 50.07118 | -39.50440 | 36684 ft | 566 kts | 80° |
| 2026-04-07 12:40 | 50.08798 | -39.38482 | 36686 ft | 565 kts | 80° |
| 2026-04-07 12:41 | 50.10465 | -39.26524 | 36678 ft | 565 kts | 79° |
| 2026-04-07 12:41 | 50.12117 | -39.14573 | 36675 ft | 564 kts | 80° |
| 2026-04-07 12:42 | 50.13756 | -39.02625 | 36686 ft | 564 kts | 80° |
| 2026-04-07 12:42 | 50.15382 | -38.90671 | 36683 ft | 563 kts | 80° |
| 2026-04-07 12:43 | 50.16994 | -38.78720 | 36675 ft | 563 kts | 80° |
| 2026-04-07 12:43 | 50.18593 | -38.66761 | 36686 ft | 563 kts | 80° |
| 2026-04-07 12:44 | 50.20179 | -38.54805 | 36683 ft | 563 kts | 80° |
| 2026-04-07 12:44 | 50.21750 | -38.42864 | 36683 ft | 562 kts | 80° |
| 2026-04-07 12:45 | 50.23312 | -38.30888 | 36678 ft | 562 kts | 81° |
| 2026-04-07 12:45 | 50.24859 | -38.18916 | 36679 ft | 562 kts | 80° |
| 2026-04-07 12:46 | 50.26392 | -38.06967 | 36684 ft | 560 kts | 80° |
| 2026-04-07 12:46 | 50.27910 | -37.95026 | 36678 ft | 560 kts | 80° |
| 2026-04-07 12:47 | 50.29414 | -37.83084 | 36675 ft | 560 kts | 81° |
| 2026-04-07 12:47 | 50.30907 | -37.71133 | 36689 ft | 560 kts | 81° |
| 2026-04-07 12:48 | 50.32385 | -37.59188 | 36683 ft | 560 kts | 81° |
| 2026-04-07 12:48 | 50.33853 | -37.47225 | 36683 ft | 559 kts | 81° |
| 2026-04-07 12:49 | 50.35296 | -37.35355 | 36689 ft | 559 kts | 81° |
| 2026-04-07 12:49 | 50.36738 | -37.23389 | 36689 ft | 559 kts | 81° |
| 2026-04-07 12:50 | 50.38167 | -37.11416 | 36649 ft | 559 kts | 80° |
| 2026-04-07 12:50 | 50.39581 | -36.99454 | 36685 ft | 558 kts | 81° |
| 2026-04-07 12:51 | 50.40986 | -36.87477 | 36694 ft | 558 kts | 81° |
| 2026-04-07 12:51 | 50.42376 | -36.75509 | 36694 ft | 558 kts | 81° |
| 2026-04-07 12:52 | 50.43754 | -36.63524 | 36693 ft | 558 kts | 81° |
| 2026-04-07 12:52 | 50.45119 | -36.51542 | 36694 ft | 558 kts | 81° |
| 2026-04-07 12:53 | 50.46470 | -36.39565 | 36692 ft | 558 kts | 81° |
| 2026-04-07 12:53 | 50.47810 | -36.27572 | 36700 ft | 558 kts | 81° |
| 2026-04-07 12:54 | 50.49139 | -36.15567 | 36693 ft | 558 kts | 81° |
| 2026-04-07 12:54 | 50.50453 | -36.03569 | 36689 ft | 557 kts | 81° |
| 2026-04-07 12:55 | 50.51753 | -35.91583 | 36690 ft | 557 kts | 81° |
| 2026-04-07 12:55 | 50.53041 | -35.79592 | 36692 ft | 556 kts | 81° |
| 2026-04-07 12:56 | 50.54316 | -35.67590 | 36695 ft | 556 kts | 81° |
| 2026-04-07 12:56 | 50.55577 | -35.55607 | 36693 ft | 555 kts | 81° |
| 2026-04-07 12:57 | 50.56825 | -35.43626 | 36692 ft | 555 kts | 81° |
| 2026-04-07 12:57 | 50.58061 | -35.31626 | 36692 ft | 555 kts | 81° |
| 2026-04-07 12:58 | 50.59285 | -35.19627 | 36691 ft | 555 kts | 82° |
| 2026-04-07 12:58 | 50.60488 | -35.07701 | 36690 ft | 555 kts | 82° |
| 2026-04-07 12:59 | 50.61687 | -34.95690 | 36694 ft | 555 kts | 82° |
| 2026-04-07 12:59 | 50.62873 | -34.83676 | 36683 ft | 555 kts | 82° |
| 2026-04-07 13:00 | 50.64047 | -34.71653 | 36693 ft | 555 kts | 82° |
| 2026-04-07 13:00 | 50.65209 | -34.59622 | 36707 ft | 555 kts | 82° |
| 2026-04-07 13:01 | 50.66358 | -34.47586 | 36700 ft | 555 kts | 82° |
| 2026-04-07 13:01 | 50.67495 | -34.35547 | 36696 ft | 555 kts | 82° |
| 2026-04-07 13:02 | 50.68620 | -34.23500 | 36695 ft | 555 kts | 82° |
| 2026-04-07 13:02 | 50.69731 | -34.11454 | 36719 ft | 555 kts | 82° |
| 2026-04-07 13:03 | 50.70829 | -33.99417 | 36718 ft | 555 kts | 82° |
| 2026-04-07 13:03 | 50.71915 | -33.87362 | 36705 ft | 554 kts | 82° |
| 2026-04-07 13:04 | 50.72988 | -33.75321 | 36714 ft | 554 kts | 83° |
| 2026-04-07 13:04 | 50.74048 | -33.63265 | 36723 ft | 554 kts | 82° |
| 2026-04-07 13:05 | 50.75094 | -33.51239 | 36719 ft | 552 kts | 82° |
| 2026-04-07 13:05 | 50.76127 | -33.39209 | 36723 ft | 552 kts | 82° |
| 2026-04-07 13:06 | 50.77146 | -33.27188 | 36727 ft | 553 kts | 82° |
| 2026-04-07 13:06 | 50.78147 | -33.15229 | 36739 ft | 553 kts | 82° |
| 2026-04-07 13:07 | 50.79148 | -33.03125 | 36733 ft | 552 kts | 83° |
| 2026-04-07 13:07 | 50.80123 | -32.91172 | 36732 ft | 552 kts | 83° |
| 2026-04-07 13:08 | 50.81092 | -32.79138 | 36740 ft | 552 kts | 83° |
| 2026-04-07 13:08 | 50.82055 | -32.67023 | 36754 ft | 552 kts | 83° |
| 2026-04-07 13:09 | 50.82993 | -32.55052 | 36706 ft | 552 kts | 83° |
| 2026-04-07 13:09 | 50.83923 | -32.43027 | 36744 ft | 551 kts | 83° |
| 2026-04-07 13:10 | 50.84842 | -32.30988 | 36756 ft | 551 kts | 83° |
| 2026-04-07 13:10 | 50.85748 | -32.18950 | 36758 ft | 551 kts | 83° |
| 2026-04-07 13:11 | 50.86641 | -32.06912 | 36765 ft | 550 kts | 83° |
| 2026-04-07 13:11 | 50.87082 | -32.00900 | 36930 ft | 550 kts | 83° |
| 2026-04-07 13:11 | 50.87520 | -31.94892 | 37198 ft | 548 kts | 83° |
| 2026-04-07 13:11 | 50.87953 | -31.88908 | 37488 ft | 546 kts | 83° |
| 2026-04-07 13:12 | 50.88380 | -31.82951 | 37771 ft | 543 kts | 83° |
| 2026-04-07 13:12 | 50.88803 | -31.77022 | 38025 ft | 541 kts | 83° |
| 2026-04-07 13:12 | 50.89081 | -31.73101 | 38179 ft | 540 kts | 83° |
| 2026-04-07 13:12 | 50.89497 | -31.67194 | 38394 ft | 539 kts | 83° |
| 2026-04-07 13:13 | 50.89909 | -31.61300 | 38572 ft | 538 kts | 84° |
| 2026-04-07 13:13 | 50.90317 | -31.55416 | 38716 ft | 537 kts | 84° |
| 2026-04-07 13:13 | 50.90723 | -31.49527 | 38756 ft | 539 kts | 84° |
| 2026-04-07 13:14 | 50.91530 | -31.37676 | 38763 ft | 542 kts | 83° |
| 2026-04-07 13:14 | 50.92325 | -31.25826 | 38777 ft | 540 kts | 83° |
| 2026-04-07 13:15 | 50.93106 | -31.13998 | 38784 ft | 539 kts | 83° |
| 2026-04-07 13:15 | 50.93874 | -31.02179 | 38777 ft | 539 kts | 83° |
| 2026-04-07 13:16 | 50.94631 | -30.90348 | 38785 ft | 539 kts | 84° |
| 2026-04-07 13:16 | 50.95376 | -30.78520 | 38789 ft | 539 kts | 84° |
| 2026-04-07 13:17 | 50.96109 | -30.66681 | 38788 ft | 539 kts | 84° |
| 2026-04-07 13:17 | 50.96830 | -30.54846 | 38792 ft | 538 kts | 84° |
| 2026-04-07 13:18 | 50.97537 | -30.43036 | 38793 ft | 537 kts | 84° |
| 2026-04-07 13:18 | 50.98231 | -30.31228 | 38799 ft | 538 kts | 84° |
| 2026-04-07 13:19 | 50.98915 | -30.19401 | 38786 ft | 538 kts | 84° |
| 2026-04-07 13:19 | 50.99585 | -30.07584 | 38805 ft | 537 kts | 84° |
| 2026-04-07 13:20 | 51.00647 | -29.95864 | 38808 ft | 536 kts | 76° |
| 2026-04-07 13:20 | 51.02239 | -29.84317 | 38813 ft | 535 kts | 75° |
| 2026-04-07 13:21 | 51.03910 | -29.72796 | 38814 ft | 535 kts | 75° |
| 2026-04-07 13:21 | 51.05571 | -29.61268 | 38815 ft | 535 kts | 75° |
| 2026-04-07 13:22 | 51.07200 | -29.49796 | 38810 ft | 536 kts | 75° |
| 2026-04-07 13:22 | 51.08823 | -29.38223 | 38812 ft | 536 kts | 75° |
| 2026-04-07 13:23 | 51.10432 | -29.26654 | 38811 ft | 536 kts | 75° |
| 2026-04-07 13:23 | 51.12030 | -29.15077 | 38834 ft | 535 kts | 75° |
| 2026-04-07 13:24 | 51.13614 | -29.03513 | 38829 ft | 534 kts | 75° |
| 2026-04-07 13:24 | 51.15187 | -28.91940 | 38830 ft | 534 kts | 75° |
| 2026-04-07 13:25 | 51.16748 | -28.80368 | 38833 ft | 535 kts | 76° |
| 2026-04-07 13:25 | 51.18297 | -28.68783 | 38835 ft | 534 kts | 75° |
| 2026-04-07 13:26 | 51.19831 | -28.57223 | 38831 ft | 532 kts | 76° |
| 2026-04-07 13:26 | 51.21351 | -28.45670 | 38838 ft | 532 kts | 76° |
| 2026-04-07 13:27 | 51.22858 | -28.34127 | 38851 ft | 531 kts | 76° |
| 2026-04-07 13:27 | 51.24350 | -28.22603 | 38866 ft | 530 kts | 76° |
| 2026-04-07 13:28 | 51.25825 | -28.11123 | 38860 ft | 526 kts | 76° |
| 2026-04-07 13:28 | 51.27281 | -27.99686 | 38855 ft | 525 kts | 76° |
| 2026-04-07 13:29 | 51.28725 | -27.88252 | 38864 ft | 526 kts | 76° |
| 2026-04-07 13:29 | 51.30161 | -27.76791 | 38878 ft | 526 kts | 76° |
| 2026-04-07 13:30 | 51.31579 | -27.65369 | 38869 ft | 521 kts | 76° |
| 2026-04-07 13:30 | 51.32972 | -27.54045 | 38892 ft | 518 kts | 76° |
| 2026-04-07 13:31 | 51.34344 | -27.42818 | 38893 ft | 518 kts | 76° |
| 2026-04-07 13:31 | 51.35716 | -27.31491 | 38902 ft | 519 kts | 76° |
| 2026-04-07 13:32 | 51.37075 | -27.20174 | 38905 ft | 517 kts | 77° |
| 2026-04-07 13:32 | 51.38419 | -27.08876 | 38907 ft | 516 kts | 77° |
| 2026-04-07 13:33 | 51.39752 | -26.97584 | 38917 ft | 517 kts | 77° |
| 2026-04-07 13:33 | 51.41732 | -26.80614 | 38936 ft | 517 kts | 77° |
| 2026-04-07 13:34 | 51.43032 | -26.69351 | 38932 ft | 512 kts | 77° |
| 2026-04-07 13:34 | 51.44312 | -26.58149 | 38945 ft | 510 kts | 77° |
| 2026-04-07 13:35 | 51.45581 | -26.46961 | 38942 ft | 510 kts | 77° |
| 2026-04-07 13:35 | 51.46838 | -26.35779 | 38944 ft | 510 kts | 77° |
| 2026-04-07 13:36 | 51.48083 | -26.24602 | 38954 ft | 507 kts | 78° |
| 2026-04-07 13:36 | 51.49311 | -26.13465 | 38956 ft | 507 kts | 78° |
| 2026-04-07 13:37 | 51.50530 | -26.02324 | 38966 ft | 507 kts | 78° |
| 2026-04-07 13:37 | 51.51737 | -25.91183 | 38977 ft | 507 kts | 78° |
| 2026-04-07 13:38 | 51.52933 | -25.80037 | 38987 ft | 506 kts | 78° |
| 2026-04-07 13:38 | 51.54115 | -25.68915 | 38984 ft | 505 kts | 78° |
| 2026-04-07 13:39 | 51.55279 | -25.57872 | 38992 ft | 504 kts | 78° |
| 2026-04-07 13:39 | 51.56438 | -25.46759 | 39002 ft | 505 kts | 78° |
| 2026-04-07 13:40 | 51.57588 | -25.35630 | 39001 ft | 505 kts | 78° |
| 2026-04-07 13:40 | 51.58728 | -25.24495 | 39012 ft | 505 kts | 78° |
| 2026-04-07 13:41 | 51.59857 | -25.13353 | 39020 ft | 505 kts | 79° |
| 2026-04-07 13:41 | 51.60976 | -25.02204 | 39021 ft | 505 kts | 79° |
| 2026-04-07 13:42 | 51.62084 | -24.91045 | 39022 ft | 505 kts | 79° |
| 2026-04-07 13:42 | 51.63180 | -24.79900 | 39025 ft | 504 kts | 79° |
| 2026-04-07 13:43 | 51.64263 | -24.68773 | 39033 ft | 503 kts | 79° |
| 2026-04-07 13:43 | 51.65336 | -24.57640 | 39040 ft | 503 kts | 79° |
| 2026-04-07 13:44 | 51.66399 | -24.46505 | 39047 ft | 503 kts | 79° |
| 2026-04-07 13:44 | 51.67451 | -24.35358 | 39052 ft | 502 kts | 80° |
| 2026-04-07 13:45 | 51.68487 | -24.24259 | 39054 ft | 500 kts | 80° |
| 2026-04-07 13:45 | 51.69511 | -24.13181 | 39054 ft | 500 kts | 80° |
| 2026-04-07 13:46 | 51.70525 | -24.02090 | 39057 ft | 500 kts | 80° |
| 2026-04-07 13:46 | 51.71528 | -23.91007 | 39077 ft | 500 kts | 80° |
| 2026-04-07 13:47 | 51.72521 | -23.79906 | 39062 ft | 500 kts | 81° |
| 2026-04-07 13:47 | 51.73504 | -23.68801 | 39079 ft | 500 kts | 81° |
| 2026-04-07 13:48 | 51.74476 | -23.57687 | 39074 ft | 500 kts | 81° |
| 2026-04-07 13:48 | 51.75432 | -23.46643 | 39095 ft | 500 kts | 81° |
| 2026-04-07 13:49 | 51.76383 | -23.35524 | 39094 ft | 500 kts | 81° |
| 2026-04-07 13:49 | 51.77324 | -23.24394 | 39093 ft | 500 kts | 81° |
| 2026-04-07 13:50 | 51.78256 | -23.13251 | 39094 ft | 501 kts | 81° |
| 2026-04-07 13:50 | 51.79177 | -23.02105 | 39101 ft | 501 kts | 81° |
| 2026-04-07 13:51 | 51.80087 | -22.90958 | 39114 ft | 501 kts | 81° |
| 2026-04-07 13:51 | 51.80988 | -22.79788 | 39100 ft | 502 kts | 81° |
| 2026-04-07 13:52 | 51.81879 | -22.68604 | 39110 ft | 502 kts | 82° |
| 2026-04-07 13:52 | 51.82761 | -22.57400 | 39111 ft | 502 kts | 82° |
| 2026-04-07 13:53 | 51.83631 | -22.46199 | 39114 ft | 502 kts | 82° |
| 2026-04-07 13:53 | 51.84491 | -22.34987 | 39114 ft | 503 kts | 82° |
| 2026-04-07 13:54 | 51.85343 | -22.23740 | 39111 ft | 504 kts | 81° |
| 2026-04-07 13:54 | 51.86186 | -22.12468 | 39120 ft | 505 kts | 82° |
| 2026-04-07 13:55 | 51.87018 | -22.01195 | 39116 ft | 505 kts | 82° |
| 2026-04-07 13:55 | 51.87834 | -21.89989 | 39132 ft | 505 kts | 82° |
| 2026-04-07 13:56 | 51.88646 | -21.78688 | 39128 ft | 506 kts | 82° |
| 2026-04-07 13:56 | 51.89447 | -21.67381 | 39129 ft | 506 kts | 82° |
| 2026-04-07 13:57 | 51.90238 | -21.56057 | 39129 ft | 506 kts | 82° |
| 2026-04-07 13:57 | 51.91017 | -21.44749 | 39152 ft | 506 kts | 82° |
| 2026-04-07 13:58 | 51.91786 | -21.33413 | 39133 ft | 506 kts | 82° |
| 2026-04-07 13:58 | 51.92543 | -21.22093 | 39134 ft | 506 kts | 82° |
| 2026-04-07 13:59 | 51.93290 | -21.10762 | 39136 ft | 506 kts | 82° |
| 2026-04-07 13:59 | 51.94026 | -20.99434 | 39142 ft | 506 kts | 82° |
| 2026-04-07 14:00 | 51.94751 | -20.88106 | 39143 ft | 505 kts | 82° |
| 2026-04-07 14:00 | 51.95463 | -20.76795 | 39137 ft | 504 kts | 82° |
| 2026-04-07 14:01 | 51.96165 | -20.65479 | 39145 ft | 504 kts | 82° |
| 2026-04-07 14:01 | 51.96744 | -20.56002 | 39135 ft | 504 kts | 82° |
| 2026-04-07 14:02 | 51.97426 | -20.44683 | 39148 ft | 504 kts | 82° |
| 2026-04-07 14:02 | 51.98097 | -20.33359 | 39143 ft | 504 kts | 83° |
| 2026-04-07 14:03 | 51.98752 | -20.22107 | 39148 ft | 504 kts | 82° |
| 2026-04-07 14:03 | 51.99404 | -20.10715 | 39150 ft | 503 kts | 82° |
| 2026-04-07 14:04 | 52.00037 | -19.99497 | 39149 ft | 503 kts | 83° |
| 2026-04-07 14:04 | 52.00416 | -19.88175 | 39151 ft | 502 kts | 86° |
| 2026-04-07 14:05 | 52.00551 | -19.76863 | 39154 ft | 501 kts | 87° |
| 2026-04-07 14:05 | 52.00698 | -19.65559 | 39146 ft | 501 kts | 86° |
| 2026-04-07 14:06 | 52.00881 | -19.54261 | 39156 ft | 501 kts | 86° |
| 2026-04-07 14:06 | 52.01073 | -19.42954 | 39149 ft | 501 kts | 87° |
| 2026-04-07 14:07 | 52.01255 | -19.31686 | 39157 ft | 498 kts | 87° |
| 2026-04-07 14:07 | 52.01424 | -19.20462 | 39155 ft | 497 kts | 87° |
| 2026-04-07 14:08 | 52.01581 | -19.09247 | 39145 ft | 497 kts | 87° |
| 2026-04-07 14:08 | 52.01727 | -18.98027 | 39154 ft | 497 kts | 87° |
| 2026-04-07 14:09 | 52.01862 | -18.86812 | 39156 ft | 496 kts | 88° |
| 2026-04-07 14:09 | 52.01985 | -18.75661 | 39150 ft | 493 kts | 88° |
| 2026-04-07 14:10 | 52.02098 | -18.64531 | 39157 ft | 493 kts | 88° |
| 2026-04-07 14:10 | 52.02201 | -18.53408 | 39149 ft | 493 kts | 88° |
| 2026-04-07 14:11 | 52.02293 | -18.42351 | 39157 ft | 493 kts | 88° |
| 2026-04-07 14:11 | 52.02375 | -18.31251 | 39148 ft | 490 kts | 88° |
| 2026-04-07 14:12 | 52.02445 | -18.20210 | 39155 ft | 489 kts | 88° |
| 2026-04-07 14:12 | 52.02505 | -18.09170 | 39159 ft | 489 kts | 89° |
| 2026-04-07 14:13 | 52.02556 | -17.98134 | 39155 ft | 489 kts | 89° |
| 2026-04-07 14:13 | 52.02596 | -17.87098 | 39148 ft | 489 kts | 89° |
| 2026-04-07 14:14 | 52.02625 | -17.76062 | 39158 ft | 488 kts | 89° |
| 2026-04-07 14:14 | 52.02644 | -17.65039 | 39151 ft | 488 kts | 89° |
| 2026-04-07 14:15 | 52.02653 | -17.54012 | 39146 ft | 488 kts | 89° |
| 2026-04-07 14:15 | 52.02652 | -17.42990 | 39158 ft | 488 kts | 90° |
| 2026-04-07 14:16 | 52.02640 | -17.31974 | 39152 ft | 488 kts | 90° |
| 2026-04-07 14:16 | 52.02618 | -17.20962 | 39149 ft | 488 kts | 90° |
| 2026-04-07 14:17 | 52.02586 | -17.09951 | 39156 ft | 488 kts | 90° |
| 2026-04-07 14:17 | 52.02543 | -16.98935 | 39143 ft | 488 kts | 90° |
| 2026-04-07 14:18 | 52.02491 | -16.87935 | 39158 ft | 487 kts | 90° |
| 2026-04-07 14:18 | 52.02428 | -16.76941 | 39150 ft | 487 kts | 91° |
| 2026-04-07 14:19 | 52.02355 | -16.65945 | 39146 ft | 487 kts | 91° |
| 2026-04-07 14:19 | 52.02271 | -16.54950 | 39145 ft | 487 kts | 91° |
| 2026-04-07 14:20 | 52.02177 | -16.43949 | 39146 ft | 487 kts | 91° |
| 2026-04-07 14:20 | 52.02074 | -16.32961 | 39145 ft | 487 kts | 91° |
| 2026-04-07 14:21 | 52.01960 | -16.21973 | 39139 ft | 486 kts | 92° |
| 2026-04-07 14:21 | 52.01836 | -16.11021 | 39144 ft | 486 kts | 92° |
| 2026-04-07 14:22 | 52.01702 | -16.00040 | 39141 ft | 486 kts | 92° |
| 2026-04-07 14:22 | 52.01558 | -15.89137 | 39132 ft | 486 kts | 92° |
| 2026-04-07 14:23 | 52.01404 | -15.78178 | 39136 ft | 485 kts | 92° |
| 2026-04-07 14:23 | 52.01239 | -15.67227 | 39132 ft | 485 kts | 92° |
| 2026-04-07 14:24 | 52.01065 | -15.56286 | 39133 ft | 485 kts | 92° |
| 2026-04-07 14:24 | 52.00880 | -15.45347 | 39135 ft | 485 kts | 93° |
| 2026-04-07 14:25 | 52.00686 | -15.34406 | 39131 ft | 485 kts | 93° |
| 2026-04-07 14:25 | 52.00481 | -15.23480 | 39122 ft | 484 kts | 93° |
| 2026-04-07 14:26 | 52.00267 | -15.12568 | 39124 ft | 483 kts | 93° |
| 2026-04-07 14:26 | 52.00042 | -15.01668 | 39124 ft | 483 kts | 93° |
| 2026-04-07 14:27 | 51.99927 | -14.90767 | 39129 ft | 483 kts | 91° |
| 2026-04-07 14:27 | 52.00010 | -14.79864 | 39119 ft | 483 kts | 91° |
| 2026-04-07 14:28 | 52.00085 | -14.68954 | 39124 ft | 483 kts | 91° |
| 2026-04-07 14:28 | 52.00114 | -14.58056 | 39122 ft | 483 kts | 91° |
| 2026-04-07 14:29 | 52.00117 | -14.47153 | 39119 ft | 483 kts | 91° |
| 2026-04-07 14:29 | 52.00106 | -14.36254 | 39116 ft | 483 kts | 92° |
| 2026-04-07 14:30 | 52.00088 | -14.25352 | 39117 ft | 484 kts | 92° |
| 2026-04-07 14:30 | 52.00060 | -14.14501 | 39115 ft | 484 kts | 92° |
| 2026-04-07 14:31 | 52.00022 | -14.03511 | 39110 ft | 484 kts | 92° |
| 2026-04-07 14:31 | 52.00111 | -13.92587 | 39110 ft | 485 kts | 88° |
| 2026-04-07 14:32 | 52.00603 | -13.81748 | 39103 ft | 485 kts | 87° |
| 2026-04-07 14:32 | 52.01128 | -13.70829 | 39109 ft | 485 kts | 88° |
| 2026-04-07 14:33 | 52.01580 | -13.59913 | 39101 ft | 485 kts | 89° |
| 2026-04-07 14:33 | 52.01986 | -13.48985 | 39102 ft | 485 kts | 89° |
| 2026-04-07 14:34 | 52.02375 | -13.38055 | 39099 ft | 485 kts | 89° |
| 2026-04-07 14:34 | 52.02755 | -13.27152 | 39098 ft | 484 kts | 90° |
| 2026-04-07 14:35 | 52.03127 | -13.16242 | 39093 ft | 483 kts | 90° |
| 2026-04-07 14:35 | 52.03488 | -13.05359 | 39088 ft | 482 kts | 90° |
| 2026-04-07 14:36 | 52.03838 | -12.94505 | 39090 ft | 481 kts | 90° |
| 2026-04-07 14:36 | 52.04178 | -12.83656 | 39066 ft | 481 kts | 91° |
| 2026-04-07 14:37 | 52.04508 | -12.72817 | 39093 ft | 480 kts | 91° |
| 2026-04-07 14:37 | 52.04827 | -12.61989 | 39084 ft | 480 kts | 91° |
| 2026-04-07 14:38 | 52.05136 | -12.51155 | 39081 ft | 480 kts | 91° |
| 2026-04-07 14:38 | 52.05436 | -12.40327 | 39069 ft | 480 kts | 91° |
| 2026-04-07 14:39 | 52.05865 | -12.24129 | 39065 ft | 482 kts | 92° |
| 2026-04-07 14:40 | 52.06140 | -12.13248 | 39068 ft | 482 kts | 92° |
| 2026-04-07 14:40 | 52.06407 | -12.02355 | 39061 ft | 482 kts | 92° |
| 2026-04-07 14:41 | 52.06663 | -11.91469 | 39058 ft | 482 kts | 92° |
| 2026-04-07 14:41 | 52.06910 | -11.80582 | 39047 ft | 482 kts | 92° |
| 2026-04-07 14:42 | 52.07146 | -11.69715 | 39049 ft | 481 kts | 92° |
| 2026-04-07 14:42 | 52.07370 | -11.58856 | 39051 ft | 481 kts | 92° |
| 2026-04-07 14:43 | 52.07585 | -11.48001 | 39052 ft | 480 kts | 93° |
| 2026-04-07 14:43 | 52.07790 | -11.37141 | 39047 ft | 481 kts | 93° |
| 2026-04-07 14:44 | 52.07986 | -11.26298 | 39042 ft | 479 kts | 94° |
| 2026-04-07 14:44 | 52.08171 | -11.15480 | 39039 ft | 478 kts | 94° |
| 2026-04-07 14:45 | 52.08345 | -11.04669 | 39040 ft | 478 kts | 94° |
| 2026-04-07 14:45 | 52.08509 | -10.93866 | 39037 ft | 478 kts | 94° |
| 2026-04-07 14:46 | 52.08664 | -10.83053 | 39016 ft | 478 kts | 94° |
| 2026-04-07 14:46 | 52.08809 | -10.72278 | 39034 ft | 476 kts | 94° |
| 2026-04-07 14:47 | 52.08943 | -10.61524 | 39038 ft | 476 kts | 94° |
| 2026-04-07 14:47 | 52.09068 | -10.50774 | 39036 ft | 475 kts | 94° |
| 2026-04-07 14:48 | 52.09182 | -10.40018 | 39034 ft | 475 kts | 95° |
| 2026-04-07 14:48 | 52.09286 | -10.29272 | 39035 ft | 475 kts | 95° |
| 2026-04-07 14:49 | 52.09381 | -10.18525 | 39031 ft | 475 kts | 95° |
| 2026-04-07 14:49 | 52.09453 | -10.09585 | 39032 ft | 475 kts | 95° |
| 2026-04-07 14:50 | 52.09530 | -9.98847 | 39033 ft | 475 kts | 95° |
| 2026-04-07 14:50 | 52.09598 | -9.88121 | 39036 ft | 474 kts | 95° |
| 2026-04-07 14:51 | 52.09656 | -9.77424 | 39044 ft | 472 kts | 95° |
| 2026-04-07 14:51 | 52.09704 | -9.66769 | 39047 ft | 471 kts | 95° |
| 2026-04-07 14:52 | 52.09741 | -9.56120 | 39045 ft | 471 kts | 95° |
| 2026-04-07 14:52 | 52.09768 | -9.45473 | 39048 ft | 471 kts | 95° |
| 2026-04-07 14:53 | 52.09787 | -9.34825 | 39014 ft | 471 kts | 95° |
| 2026-04-07 14:53 | 52.09796 | -9.24174 | 39035 ft | 471 kts | 95° |
| 2026-04-07 14:54 | 52.09796 | -9.13510 | 39033 ft | 471 kts | 95° |
| 2026-04-07 14:54 | 52.09786 | -9.02854 | 39036 ft | 471 kts | 95° |
| 2026-04-07 14:55 | 52.09766 | -8.92263 | 39038 ft | 471 kts | 96° |
| 2026-04-07 14:55 | 52.09737 | -8.81643 | 39046 ft | 471 kts | 95° |
| 2026-04-07 14:56 | 52.09699 | -8.70994 | 39030 ft | 471 kts | 95° |
| 2026-04-07 14:56 | 52.09651 | -8.60363 | 39018 ft | 471 kts | 96° |
| 2026-04-07 14:57 | 52.09593 | -8.49699 | 39021 ft | 471 kts | 96° |
| 2026-04-07 14:57 | 52.09525 | -8.39059 | 39020 ft | 471 kts | 96° |
| 2026-04-07 14:58 | 52.09449 | -8.28424 | 39027 ft | 469 kts | 96° |
| 2026-04-07 14:58 | 52.09363 | -8.17832 | 39024 ft | 468 kts | 96° |
| 2026-04-07 14:59 | 52.09266 | -8.07243 | 39023 ft | 468 kts | 96° |
| 2026-04-07 14:59 | 52.09160 | -7.96658 | 39045 ft | 468 kts | 96° |
| 2026-04-07 15:00 | 52.09046 | -7.86073 | 39039 ft | 468 kts | 96° |
| 2026-04-07 15:00 | 52.08922 | -7.75517 | 39048 ft | 467 kts | 96° |
| 2026-04-07 15:01 | 52.08790 | -7.64969 | 39056 ft | 466 kts | 96° |
| 2026-04-07 15:01 | 52.08647 | -7.54436 | 39056 ft | 466 kts | 96° |
| 2026-04-07 15:02 | 52.08497 | -7.43982 | 39069 ft | 466 kts | 96° |
| 2026-04-07 15:02 | 52.08336 | -7.33461 | 39066 ft | 466 kts | 96° |
| 2026-04-07 15:03 | 52.08165 | -7.22920 | 39074 ft | 467 kts | 96° |
| 2026-04-07 15:03 | 52.07985 | -7.12378 | 39075 ft | 467 kts | 96° |
| 2026-04-07 15:04 | 52.07796 | -7.01833 | 39076 ft | 466 kts | 96° |
| 2026-04-07 15:04 | 52.07599 | -6.91342 | 39072 ft | 463 kts | 96° |
| 2026-04-07 15:05 | 52.07392 | -6.80886 | 39068 ft | 463 kts | 96° |
| 2026-04-07 15:05 | 52.07175 | -6.70426 | 39069 ft | 463 kts | 96° |
| 2026-04-07 15:06 | 52.06950 | -6.59963 | 39071 ft | 463 kts | 96° |
| 2026-04-07 15:06 | 52.06716 | -6.49503 | 39069 ft | 463 kts | 96° |
| 2026-04-07 15:07 | 52.06472 | -6.39036 | 39070 ft | 463 kts | 96° |
| 2026-04-07 15:07 | 52.06219 | -6.28585 | 39074 ft | 463 kts | 96° |
| 2026-04-07 15:08 | 52.05957 | -6.18128 | 39056 ft | 463 kts | 96° |
| 2026-04-07 15:08 | 52.05670 | -6.07683 | 39051 ft | 462 kts | 98° |
| 2026-04-07 15:09 | 52.04470 | -5.97530 | 39066 ft | 456 kts | 108° |
| 2026-04-07 15:09 | 52.02814 | -5.87577 | 39048 ft | 456 kts | 109° |
| 2026-04-07 15:10 | 52.01077 | -5.77651 | 39062 ft | 458 kts | 109° |
| 2026-04-07 15:10 | 51.99333 | -5.67697 | 39067 ft | 459 kts | 109° |
| 2026-04-07 15:11 | 51.97596 | -5.57750 | 39068 ft | 459 kts | 109° |
| 2026-04-07 15:11 | 51.95853 | -5.47797 | 39065 ft | 459 kts | 109° |
| 2026-04-07 15:12 | 51.94104 | -5.37856 | 39066 ft | 459 kts | 109° |
| 2026-04-07 15:12 | 51.92346 | -5.27931 | 39063 ft | 458 kts | 109° |
| 2026-04-07 15:13 | 51.90883 | -5.17861 | 39070 ft | 460 kts | 104° |
| 2026-04-07 15:13 | 51.89668 | -5.07694 | 39074 ft | 460 kts | 104° |
| 2026-04-07 15:14 | 51.88484 | -4.97514 | 39069 ft | 460 kts | 104° |
| 2026-04-07 15:14 | 51.87299 | -4.87409 | 39065 ft | 460 kts | 104° |
| 2026-04-07 15:15 | 51.86088 | -4.77228 | 39075 ft | 461 kts | 104° |
| 2026-04-07 15:15 | 51.84869 | -4.67047 | 39080 ft | 461 kts | 104° |
| 2026-04-07 15:16 | 51.83635 | -4.56875 | 39079 ft | 461 kts | 104° |
| 2026-04-07 15:16 | 51.82390 | -4.46707 | 39078 ft | 461 kts | 104° |
| 2026-04-07 15:17 | 51.81139 | -4.36542 | 39069 ft | 461 kts | 104° |
| 2026-04-07 15:17 | 51.79881 | -4.26387 | 39074 ft | 461 kts | 104° |
| 2026-04-07 15:18 | 51.78615 | -4.16238 | 39074 ft | 461 kts | 104° |
| 2026-04-07 15:18 | 51.77339 | -4.06092 | 39078 ft | 461 kts | 104° |
| 2026-04-07 15:19 | 51.76053 | -3.95950 | 39079 ft | 461 kts | 104° |
| 2026-04-07 15:19 | 51.74762 | -3.85817 | 39074 ft | 461 kts | 105° |
| 2026-04-07 15:20 | 51.73463 | -3.75698 | 39089 ft | 460 kts | 105° |
| 2026-04-07 15:20 | 51.72159 | -3.65651 | 39106 ft | 460 kts | 105° |
| 2026-04-07 15:21 | 51.70981 | -3.55510 | 39112 ft | 462 kts | 99° |
| 2026-04-07 15:21 | 51.70304 | -3.45197 | 39121 ft | 462 kts | 98° |
| 2026-04-07 15:22 | 51.69701 | -3.34867 | 39171 ft | 463 kts | 98° |
| 2026-04-07 15:22 | 51.69103 | -3.24564 | 39212 ft | 460 kts | 98° |
| 2026-04-07 15:23 | 51.68489 | -3.14300 | 39241 ft | 460 kts | 98° |
| 2026-04-07 15:23 | 51.67865 | -3.04110 | 39264 ft | 460 kts | 98° |
| 2026-04-07 15:24 | 51.67223 | -2.93806 | 39261 ft | 460 kts | 98° |
| 2026-04-07 15:24 | 51.66581 | -2.83637 | 39262 ft | 461 kts | 98° |
| 2026-04-07 15:24 | 51.66254 | -2.78506 | 39139 ft | 461 kts | 98° |
| 2026-04-07 15:25 | 51.65926 | -2.73396 | 39141 ft | 461 kts | 98° |
| 2026-04-07 15:25 | 51.65263 | -2.63160 | 39144 ft | 461 kts | 98° |
| 2026-04-07 15:26 | 51.64588 | -2.52892 | 39143 ft | 461 kts | 98° |
| 2026-04-07 15:26 | 51.63905 | -2.42636 | 39156 ft | 461 kts | 99° |
| 2026-04-07 15:27 | 51.63214 | -2.32376 | 39154 ft | 461 kts | 99° |
| 2026-04-07 15:27 | 51.62511 | -2.22113 | 39157 ft | 461 kts | 99° |
| 2026-04-07 15:28 | 51.61799 | -2.11857 | 39168 ft | 461 kts | 99° |
| 2026-04-07 15:28 | 51.61079 | -2.01605 | 39166 ft | 461 kts | 99° |
| 2026-04-07 15:29 | 51.60351 | -1.91353 | 39160 ft | 461 kts | 99° |
| 2026-04-07 15:29 | 51.59615 | -1.81118 | 39170 ft | 461 kts | 99° |
| 2026-04-07 15:30 | 51.58869 | -1.70886 | 39172 ft | 460 kts | 99° |
| 2026-04-07 15:30 | 51.57489 | -1.60990 | 39173 ft | 455 kts | 110° |
| 2026-04-07 15:31 | 51.55516 | -1.51329 | 39187 ft | 455 kts | 112° |
| 2026-04-07 15:31 | 51.53444 | -1.41744 | 39171 ft | 454 kts | 112° |
| 2026-04-07 15:32 | 51.51368 | -1.32173 | 39193 ft | 454 kts | 112° |
| 2026-04-07 15:32 | 51.49365 | -1.22573 | 39178 ft | 456 kts | 108° |
| 2026-04-07 15:33 | 51.47988 | -1.12629 | 39178 ft | 457 kts | 104° |
| 2026-04-07 15:33 | 51.46751 | -1.02626 | 39191 ft | 457 kts | 104° |
| 2026-04-07 15:34 | 51.45521 | -0.92620 | 39201 ft | 458 kts | 104° |
| 2026-04-07 15:34 | 51.44275 | -0.82612 | 39203 ft | 458 kts | 104° |
| 2026-04-07 15:35 | 51.43011 | -0.72597 | 39207 ft | 458 kts | 104° |
| 2026-04-07 15:35 | 51.41737 | -0.62596 | 39210 ft | 458 kts | 104° |
| 2026-04-07 15:36 | 51.40454 | -0.52590 | 39212 ft | 458 kts | 105° |
| 2026-04-07 15:36 | 51.39163 | -0.42596 | 39211 ft | 458 kts | 105° |
| 2026-04-07 15:37 | 51.37863 | -0.32606 | 39212 ft | 458 kts | 105° |
| 2026-04-07 15:37 | 51.36556 | -0.22624 | 39212 ft | 458 kts | 105° |
| 2026-04-07 15:38 | 51.35244 | -0.12645 | 39213 ft | 458 kts | 105° |
| 2026-04-07 15:38 | 51.33920 | -0.02678 | 39216 ft | 458 kts | 105° |
| 2026-04-07 15:39 | 51.32620 | 0.07204 | 39163 ft | 458 kts | 103° |
| 2026-04-07 15:39 | 51.31654 | 0.17290 | 39135 ft | 459 kts | 100° |
| 2026-04-07 15:40 | 51.30793 | 0.27404 | 39111 ft | 459 kts | 101° |
| 2026-04-07 15:40 | 51.30028 | 0.35856 | 39096 ft | 459 kts | 101° |
| 2026-04-07 15:41 | 51.29070 | 0.45923 | 39089 ft | 458 kts | 101° |
| 2026-04-07 15:41 | 51.28089 | 0.55984 | 39098 ft | 459 kts | 101° |
| 2026-04-07 15:42 | 51.27098 | 0.66049 | 39125 ft | 459 kts | 101° |
| 2026-04-07 15:42 | 51.25599 | 0.81131 | 39174 ft | 459 kts | 101° |
| 2026-04-07 15:43 | 51.24596 | 0.91120 | 39210 ft | 459 kts | 101° |
| 2026-04-07 15:43 | 51.23578 | 1.01167 | 39239 ft | 459 kts | 101° |
| 2026-04-07 15:44 | 51.22552 | 1.11205 | 39242 ft | 458 kts | 101° |
| 2026-04-07 15:44 | 51.21517 | 1.21243 | 39243 ft | 458 kts | 101° |
| 2026-04-07 15:45 | 51.20474 | 1.31269 | 39247 ft | 458 kts | 102° |
| 2026-04-07 15:45 | 51.19422 | 1.41293 | 39244 ft | 458 kts | 102° |
| 2026-04-07 15:46 | 51.18362 | 1.51306 | 39241 ft | 458 kts | 102° |
| 2026-04-07 15:46 | 51.17294 | 1.61321 | 39244 ft | 458 kts | 102° |
| 2026-04-07 15:47 | 51.16217 | 1.71326 | 39245 ft | 458 kts | 102° |
| 2026-04-07 15:47 | 51.15131 | 1.81328 | 39244 ft | 458 kts | 102° |
| 2026-04-07 15:48 | 51.14037 | 1.91332 | 39230 ft | 458 kts | 102° |
| 2026-04-07 15:48 | 51.13054 | 2.01382 | 39242 ft | 461 kts | 98° |
| 2026-04-07 15:49 | 51.12448 | 2.11555 | 39240 ft | 462 kts | 97° |
| 2026-04-07 15:49 | 51.11903 | 2.21740 | 39235 ft | 462 kts | 97° |
| 2026-04-07 15:50 | 51.11359 | 2.31886 | 39245 ft | 462 kts | 97° |
| 2026-04-07 15:50 | 51.10795 | 2.42107 | 39242 ft | 462 kts | 97° |
| 2026-04-07 15:51 | 51.10218 | 2.52311 | 39249 ft | 463 kts | 97° |
| 2026-04-07 15:51 | 51.09610 | 2.62512 | 39246 ft | 463 kts | 100° |
| 2026-04-07 15:52 | 51.08175 | 2.72440 | 39250 ft | 460 kts | 107° |
| 2026-04-07 15:52 | 51.06432 | 2.82224 | 39263 ft | 460 kts | 108° |
| 2026-04-07 15:53 | 51.04641 | 2.91936 | 39263 ft | 462 kts | 108° |
| 2026-04-07 15:53 | 51.02821 | 3.01795 | 39260 ft | 462 kts | 108° |
| 2026-04-07 15:54 | 51.01012 | 3.11606 | 39256 ft | 462 kts | 108° |
| 2026-04-07 15:54 | 50.99213 | 3.21336 | 39253 ft | 462 kts | 108° |
| 2026-04-07 15:55 | 50.97393 | 3.31126 | 39243 ft | 462 kts | 108° |
| 2026-04-07 15:55 | 50.95562 | 3.40920 | 39250 ft | 464 kts | 108° |
| 2026-04-07 15:56 | 50.93718 | 3.50729 | 39249 ft | 464 kts | 108° |
| 2026-04-07 15:56 | 50.91867 | 3.60533 | 39255 ft | 464 kts | 109° |
| 2026-04-07 15:57 | 50.90006 | 3.70332 | 39260 ft | 464 kts | 109° |
| 2026-04-07 15:57 | 50.88115 | 3.80114 | 39270 ft | 465 kts | 109° |
| 2026-04-07 15:58 | 50.86208 | 3.89913 | 39271 ft | 466 kts | 109° |
| 2026-04-07 15:58 | 50.84296 | 3.99708 | 39279 ft | 466 kts | 109° |
| 2026-04-07 15:59 | 50.82435 | 4.09213 | 39281 ft | 466 kts | 109° |
| 2026-04-07 15:59 | 50.80508 | 4.19004 | 39286 ft | 466 kts | 109° |
| 2026-04-07 16:00 | 50.78576 | 4.28770 | 39287 ft | 465 kts | 109° |
| 2026-04-07 16:00 | 50.76640 | 4.38505 | 39291 ft | 464 kts | 109° |
| 2026-04-07 16:01 | 50.74688 | 4.48269 | 39291 ft | 464 kts | 109° |
| 2026-04-07 16:01 | 50.72748 | 4.57932 | 39290 ft | 464 kts | 109° |
| 2026-04-07 16:02 | 50.70821 | 4.67651 | 39282 ft | 464 kts | 108° |
| 2026-04-07 16:02 | 50.68942 | 4.77397 | 39285 ft | 465 kts | 108° |
| 2026-04-07 16:03 | 50.67054 | 4.87149 | 39288 ft | 465 kts | 108° |
| 2026-04-07 16:03 | 50.65142 | 4.96880 | 39288 ft | 465 kts | 109° |
| 2026-04-07 16:04 | 50.63161 | 5.06499 | 39291 ft | 465 kts | 110° |
| 2026-04-07 16:04 | 50.61144 | 5.16172 | 39171 ft | 465 kts | 109° |
| 2026-04-07 16:05 | 50.60137 | 5.21010 | 38943 ft | 466 kts | 109° |
| 2026-04-07 16:05 | 50.59129 | 5.25851 | 38672 ft | 467 kts | 109° |
| 2026-04-07 16:05 | 50.58117 | 5.30708 | 38382 ft | 467 kts | 109° |
| 2026-04-07 16:05 | 50.57107 | 5.35551 | 38104 ft | 467 kts | 109° |
| 2026-04-07 16:06 | 50.56089 | 5.40422 | 37824 ft | 468 kts | 109° |
| 2026-04-07 16:06 | 50.55070 | 5.45286 | 37549 ft | 468 kts | 109° |
| 2026-04-07 16:06 | 50.54050 | 5.50146 | 37272 ft | 468 kts | 109° |
| 2026-04-07 16:06 | 50.53027 | 5.55006 | 37018 ft | 469 kts | 109° |
| 2026-04-07 16:07 | 50.52001 | 5.59870 | 36756 ft | 469 kts | 109° |
| 2026-04-07 16:07 | 50.50981 | 5.64722 | 36356 ft | 467 kts | 108° |
| 2026-04-07 16:07 | 50.50025 | 5.69606 | 35792 ft | 468 kts | 107° |
| 2026-04-07 16:07 | 50.49115 | 5.74524 | 35166 ft | 470 kts | 107° |
| 2026-04-07 16:08 | 50.48216 | 5.79476 | 34507 ft | 473 kts | 107° |
| 2026-04-07 16:08 | 50.47311 | 5.84451 | 33786 ft | 475 kts | 107° |
| 2026-04-07 16:08 | 50.46395 | 5.89431 | 33094 ft | 475 kts | 107° |
| 2026-04-07 16:08 | 50.45469 | 5.94408 | 32391 ft | 476 kts | 107° |
| 2026-04-07 16:09 | 50.44534 | 5.99377 | 31822 ft | 473 kts | 107° |
| 2026-04-07 16:09 | 50.43601 | 6.04305 | 31362 ft | 469 kts | 106° |
| 2026-04-07 16:09 | 50.42672 | 6.09185 | 30871 ft | 465 kts | 106° |
| 2026-04-07 16:09 | 50.41749 | 6.14021 | 30397 ft | 461 kts | 106° |
| 2026-04-07 16:10 | 50.40830 | 6.18821 | 29859 ft | 458 kts | 106° |
| 2026-04-07 16:10 | 50.39919 | 6.23571 | 29357 ft | 453 kts | 106° |
| 2026-04-07 16:10 | 50.39015 | 6.28273 | 28867 ft | 449 kts | 106° |
| 2026-04-07 16:10 | 50.38117 | 6.32936 | 28372 ft | 445 kts | 106° |
| 2026-04-07 16:11 | 50.37228 | 6.37550 | 27917 ft | 441 kts | 106° |
| 2026-04-07 16:11 | 50.36521 | 6.42188 | 27438 ft | 436 kts | 97° |
| 2026-04-07 16:11 | 50.36110 | 6.46869 | 26966 ft | 432 kts | 96° |
| 2026-04-07 16:11 | 50.35778 | 6.51526 | 26485 ft | 430 kts | 94° |
| 2026-04-07 16:12 | 50.35484 | 6.56165 | 26003 ft | 427 kts | 94° |
| 2026-04-07 16:12 | 50.35199 | 6.60778 | 25551 ft | 424 kts | 94° |
| 2026-04-07 16:12 | 50.34920 | 6.65300 | 25090 ft | 422 kts | 94° |
| 2026-04-07 16:12 | 50.34631 | 6.69923 | 24601 ft | 420 kts | 93° |
| 2026-04-07 16:13 | 50.34347 | 6.74411 | 24144 ft | 419 kts | 93° |
| 2026-04-07 16:13 | 50.34075 | 6.78700 | 23689 ft | 417 kts | 93° |
| 2026-04-07 16:13 | 50.33785 | 6.83202 | 23203 ft | 414 kts | 95° |
| 2026-04-07 16:13 | 50.33141 | 6.87581 | 22744 ft | 414 kts | 109° |
| 2026-04-07 16:14 | 50.32008 | 6.91722 | 22281 ft | 412 kts | 113° |
| 2026-04-07 16:14 | 50.30793 | 6.95768 | 21818 ft | 410 kts | 113° |
| 2026-04-07 16:14 | 50.29582 | 6.99783 | 21357 ft | 406 kts | 113° |
| 2026-04-07 16:14 | 50.28386 | 7.03764 | 20913 ft | 403 kts | 113° |
| 2026-04-07 16:15 | 50.27201 | 7.07717 | 20456 ft | 400 kts | 113° |
| 2026-04-07 16:15 | 50.26043 | 7.11581 | 20005 ft | 397 kts | 113° |
| 2026-04-07 16:15 | 50.24875 | 7.15478 | 19566 ft | 395 kts | 113° |
| 2026-04-07 16:15 | 50.23714 | 7.19347 | 19120 ft | 392 kts | 114° |
| 2026-04-07 16:16 | 50.22558 | 7.23190 | 18683 ft | 390 kts | 114° |
| 2026-04-07 16:16 | 50.21409 | 7.27010 | 18210 ft | 387 kts | 114° |
| 2026-04-07 16:16 | 50.20268 | 7.30794 | 17757 ft | 384 kts | 114° |
| 2026-04-07 16:16 | 50.19145 | 7.34552 | 17306 ft | 380 kts | 112° |
| 2026-04-07 16:17 | 50.18204 | 7.38365 | 16889 ft | 375 kts | 107° |
| 2026-04-07 16:17 | 50.17341 | 7.42186 | 16438 ft | 372 kts | 107° |
| 2026-04-07 16:17 | 50.16469 | 7.45987 | 15999 ft | 370 kts | 108° |
| 2026-04-07 16:17 | 50.15594 | 7.49730 | 15544 ft | 368 kts | 108° |
| 2026-04-07 16:18 | 50.14712 | 7.53466 | 15112 ft | 366 kts | 108° |
| 2026-04-07 16:18 | 50.13830 | 7.57171 | 14679 ft | 364 kts | 108° |
| 2026-04-07 16:18 | 50.12948 | 7.60856 | 14236 ft | 362 kts | 108° |
| 2026-04-07 16:18 | 50.12066 | 7.64527 | 13743 ft | 361 kts | 108° |
| 2026-04-07 16:19 | 50.11186 | 7.68179 | 13281 ft | 359 kts | 108° |
| 2026-04-07 16:19 | 50.10375 | 7.71828 | 12858 ft | 354 kts | 105° |
| 2026-04-07 16:19 | 50.09686 | 7.75491 | 12443 ft | 351 kts | 104° |
| 2026-04-07 16:19 | 50.09009 | 7.79126 | 12011 ft | 349 kts | 104° |
| 2026-04-07 16:20 | 50.08355 | 7.82735 | 11606 ft | 346 kts | 101° |
| 2026-04-07 16:20 | 50.08174 | 7.86420 | 11208 ft | 339 kts | 81° |
| 2026-04-07 16:20 | 50.08773 | 7.89928 | 11125 ft | 336 kts | 68° |
| 2026-04-07 16:20 | 50.09592 | 7.93292 | 10984 ft | 328 kts | 67° |
| 2026-04-07 16:21 | 50.10404 | 7.96557 | 10845 ft | 318 kts | 67° |
| 2026-04-07 16:21 | 50.11188 | 7.99732 | 10679 ft | 310 kts | 67° |
| 2026-04-07 16:21 | 50.11947 | 8.02823 | 10521 ft | 301 kts | 67° |
| 2026-04-07 16:21 | 50.12656 | 8.05721 | 10344 ft | 295 kts | 67° |
| 2026-04-07 16:22 | 50.13381 | 8.08689 | 10079 ft | 291 kts | 67° |
| 2026-04-07 16:22 | 50.14098 | 8.11630 | 9778 ft | 289 kts | 67° |
| 2026-04-07 16:22 | 50.14656 | 8.14634 | 9448 ft | 291 kts | 82° |
| 2026-04-07 16:22 | 50.14500 | 8.17766 | 9134 ft | 291 kts | 99° |
| 2026-04-07 16:23 | 50.13923 | 8.20789 | 8825 ft | 292 kts | 112° |
| 2026-04-07 16:23 | 50.12784 | 8.23395 | 8499 ft | 293 kts | 135° |
| 2026-04-07 16:23 | 50.11045 | 8.25003 | 8203 ft | 293 kts | 163° |
| 2026-04-07 16:23 | 50.09030 | 8.25180 | 7836 ft | 293 kts | 192° |
| 2026-04-07 16:24 | 50.07238 | 8.23774 | 7502 ft | 290 kts | 225° |
| 2026-04-07 16:24 | 50.06177 | 8.21192 | 7209 ft | 283 kts | 250° |
| 2026-04-07 16:24 | 50.05466 | 8.18332 | 6866 ft | 284 kts | 249° |
| 2026-04-07 16:24 | 50.04662 | 8.15519 | 6521 ft | 285 kts | 245° |
| 2026-04-07 16:25 | 50.03759 | 8.12787 | 6218 ft | 283 kts | 243° |
| 2026-04-07 16:25 | 50.02860 | 8.10089 | 5779 ft | 280 kts | 243° |
| 2026-04-07 16:25 | 50.01886 | 8.07502 | 5269 ft | 274 kts | 238° |
| 2026-04-07 16:25 | 50.01129 | 8.05946 | 5071 ft | 269 kts | 227° |
| 2026-04-07 16:26 | 49.99191 | 8.03860 | 5004 ft | 248 kts | 199° |
| 2026-04-07 16:26 | 49.97507 | 8.03496 | 5004 ft | 241 kts | 171° |
| 2026-04-07 16:26 | 49.95977 | 8.04334 | 4970 ft | 236 kts | 144° |
| 2026-04-07 16:26 | 49.95145 | 8.05432 | 4847 ft | 232 kts | 130° |
| 2026-04-07 16:27 | 49.94270 | 8.08350 | 4401 ft | 229 kts | 90° |
| 2026-04-07 16:27 | 49.94451 | 8.10773 | 4153 ft | 225 kts | 75° |
| 2026-04-07 16:27 | 49.94917 | 8.13060 | 4022 ft | 218 kts | 69° |
| 2026-04-07 16:27 | 49.95428 | 8.15206 | 4003 ft | 206 kts | 68° |
| 2026-04-07 16:28 | 49.95758 | 8.16572 | 4017 ft | 194 kts | 68° |
| 2026-04-07 16:28 | 49.96201 | 8.18408 | 4000 ft | 170 kts | 69° |
| 2026-04-07 16:28 | 49.96601 | 8.20079 | 4001 ft | 162 kts | 68° |
| 2026-04-07 16:28 | 49.96974 | 8.21642 | 4006 ft | 146 kts | 67° |
| 2026-04-07 16:29 | 49.97327 | 8.23115 | 3942 ft | 146 kts | 68° |
| 2026-04-07 16:29 | 49.97686 | 8.24601 | 3750 ft | 147 kts | 68° |
| 2026-04-07 16:29 | 49.98043 | 8.26085 | 3540 ft | 147 kts | 69° |
| 2026-04-07 16:29 | 49.98394 | 8.27552 | 3311 ft | 140 kts | 68° |
| 2026-04-07 16:30 | 49.98726 | 8.28941 | 3092 ft | 134 kts | 67° |
| 2026-04-07 16:30 | 49.99043 | 8.30273 | 2869 ft | 133 kts | 68° |
| 2026-04-07 16:30 | 49.99361 | 8.31636 | 2713 ft | 136 kts | 68° |
| 2026-04-07 16:30 | 49.99674 | 8.33033 | 2550 ft | 137 kts | 68° |
| 2026-04-07 16:31 | 49.99981 | 8.34422 | 2363 ft | 135 kts | 69° |
| 2026-04-07 16:31 | 50.00297 | 8.35775 | 2196 ft | 131 kts | 66° |
| 2026-04-07 16:31 | 50.00653 | 8.37075 | 2040 ft | 130 kts | 64° |
| 2026-04-07 16:31 | 50.00979 | 8.38377 | 1849 ft | 131 kts | 68° |
| 2026-04-07 16:32 | 50.01299 | 8.39725 | 1696 ft | 134 kts | 66° |
| 2026-04-07 16:32 | 50.01638 | 8.41087 | 1486 ft | 136 kts | 66° |
| 2026-04-07 16:32 | 50.01979 | 8.42455 | 1295 ft | 136 kts | 67° |
| 2026-04-07 16:32 | 50.02309 | 8.43832 | 1091 ft | 136 kts | 68° |
| 2026-04-07 16:33 | 50.02633 | 8.45211 | 901 ft | 134 kts | 68° |
| 2026-04-07 16:33 | 50.02953 | 8.46561 | 755 ft | 132 kts | 68° |
| 2026-04-07 16:33 | 50.03275 | 8.47889 | 619 ft | 130 kts | 66° |
| 2026-04-07 16:33 | 50.03583 | 8.49216 | 431 ft | 130 kts | 65° |
| 2026-04-07 16:34 | 50.03899 | 8.50520 | 324 ft | 121 kts | 68° |
| 2026-04-07 16:34 | 50.04134 | 8.51479 | 336 ft | 69 kts | 70° |
| 2026-04-07 16:34 | 50.04229 | 8.51964 | 349 ft | 33 kts | 80° |
| 2026-04-07 16:34 | 50.04224 | 8.52281 | 355 ft | 18 kts | 99° |
| 2026-04-07 16:35 | 50.04218 | 8.52336 | 351 ft | 0 kts | 100° |
| 2026-04-07 16:35 | 50.04214 | 8.52364 | 353 ft | 5 kts | 101° |
| 2026-04-07 16:36 | 50.04206 | 8.52453 | 354 ft | 11 kts | 97° |
| 2026-04-07 16:36 | 50.04198 | 8.52604 | 359 ft | 15 kts | 79° |
| 2026-04-07 16:36 | 50.04225 | 8.52786 | 362 ft | 19 kts | 69° |
| 2026-04-07 16:36 | 50.04276 | 8.52989 | 364 ft | 21 kts | 69° |
| 2026-04-07 16:37 | 50.04327 | 8.53205 | 371 ft | 21 kts | 69° |
| 2026-04-07 16:37 | 50.04376 | 8.53402 | 377 ft | 18 kts | 71° |
| 2026-04-07 16:37 | 50.04402 | 8.53590 | 379 ft | 19 kts | 83° |
| 2026-04-07 16:37 | 50.04414 | 8.53812 | 379 ft | 22 kts | 83° |
| 2026-04-07 16:38 | 50.04432 | 8.54069 | 379 ft | 25 kts | 85° |
| 2026-04-07 16:38 | 50.04450 | 8.54337 | 378 ft | 25 kts | 84° |
| 2026-04-07 16:38 | 50.04418 | 8.54623 | 370 ft | 29 kts | 120° |
| 2026-04-07 16:38 | 50.04263 | 8.54803 | 363 ft | 27 kts | 159° |
| 2026-04-07 16:39 | 50.04102 | 8.54891 | 362 ft | 19 kts | 161° |
| 2026-04-07 16:39 | 50.04027 | 8.54945 | 365 ft | 7 kts | 130° |
| 2026-04-07 16:39 | 50.04018 | 8.55000 | 363 ft | 5 kts | 85° |
| 2026-04-07 16:39 | 50.04035 | 8.55088 | 363 ft | 12 kts | 69° |
| 2026-04-07 16:40 | 50.04070 | 8.55231 | 365 ft | 16 kts | 69° |
| 2026-04-07 16:40 | 50.04115 | 8.55417 | 365 ft | 20 kts | 69° |
| 2026-04-07 16:40 | 50.04165 | 8.55626 | 360 ft | 19 kts | 69° |
| 2026-04-07 16:40 | 50.04193 | 8.55746 | 361 ft | 4 kts | 70° |
| 2026-04-07 16:41 | 50.04196 | 8.55758 | 366 ft | 0 kts | 70° |
| 2026-04-07 16:45 | 50.04199 | 8.55769 | 364 ft | 2 kts | 69° |
| 2026-04-07 16:45 | 50.04208 | 8.55802 | 363 ft | 4 kts | 67° |
| 2026-04-07 16:45 | 50.04219 | 8.55852 | 365 ft | 6 kts | 71° |
| 2026-04-07 16:45 | 50.04244 | 8.55937 | 367 ft | 10 kts | 50° |
| 2026-04-07 16:46 | 50.04313 | 8.55945 | 363 ft | 12 kts | 342° |
| 2026-04-07 16:46 | 50.04398 | 8.55907 | 363 ft | 13 kts | 354° |
| 2026-04-07 16:46 | 50.04496 | 8.55939 | 366 ft | 16 kts | 15° |
| 2026-04-07 16:46 | 50.04577 | 8.56052 | 369 ft | 17 kts | 69° |
| 2026-04-07 16:47 | 50.04617 | 8.56223 | 364 ft | 17 kts | 69° |
| 2026-04-07 16:47 | 50.04657 | 8.56396 | 365 ft | 13 kts | 73° |
| 2026-04-07 16:47 | 50.04677 | 8.56493 | 367 ft | 9 kts | 81° |
| 2026-04-07 16:47 | 50.04659 | 8.56589 | 364 ft | 10 kts | 114° |
| 2026-04-07 16:48 | 50.04644 | 8.56640 | 369 ft | 4 kts | 114° |
| 2026-04-07 16:48 | 50.04639 | 8.56657 | 363 ft | 0 kts | 115° |